<?xml version="1.0" encoding="UTF-8" standalone="no" ?>
<gpx xmlns="http://www.topografix.com/GPX/1/1" xmlns:xsi="http://www.w3.org/2001/XMLSchema-instance" xsi:schemaLocation="http://www.topografix.com/GPX/1/1 http://www.topografix.com/GPX/1/1/gpx.xsd" version="1.1" creator="VisuGPX - https://www.visugpx.com">
  <metadata>
    <name>CrossTriathlon M</name>
    <desc><![CDATA[[titre]Triathlon Côte de Granit Rose[/titre]
CrossTriathlon M
]]></desc>
  </metadata>
  <trk>
    <name><![CDATA[VTT]]></name>
    <extensions>
      <line xmlns="http://www.topografix.com/GPX/gpx_style/0/2">
        <color>223a69</color>
        <opacity>1</opacity>
        <width>4</width>
      </line>
    </extensions>
    <trkseg>
      <trkpt lat="48.8288" lon="-3.52157">
        <ele>9.3</ele>
        <time>2025-01-28T18:07:22.000Z</time>
      </trkpt>
      <trkpt lat="48.82879" lon="-3.52159">
        <ele>9.73</ele>
        <time>2025-01-28T18:07:22.000Z</time>
      </trkpt>
      <trkpt lat="48.82904" lon="-3.52163">
        <ele>10.42</ele>
        <time>2025-01-28T18:07:22.009Z</time>
      </trkpt>
      <trkpt lat="48.82914" lon="-3.52165">
        <ele>11.06</ele>
        <time>2025-01-28T18:07:22.021Z</time>
      </trkpt>
      <trkpt lat="48.82913" lon="-3.52147">
        <ele>11.84</ele>
        <time>2025-01-28T18:07:22.037Z</time>
      </trkpt>
      <trkpt lat="48.82911" lon="-3.52103">
        <ele>12.73</ele>
        <time>2025-01-28T18:07:22.063Z</time>
      </trkpt>
      <trkpt lat="48.82908" lon="-3.5206">
        <ele>13.7</ele>
        <time>2025-01-28T18:07:22.098Z</time>
      </trkpt>
      <trkpt lat="48.82904" lon="-3.52022">
        <ele>14.52</ele>
        <time>2025-01-28T18:07:22.142Z</time>
      </trkpt>
      <trkpt lat="48.82901" lon="-3.51983">
        <ele>15.57</ele>
        <time>2025-01-28T18:07:22.195Z</time>
      </trkpt>
      <trkpt lat="48.82897" lon="-3.51944">
        <ele>16.68</ele>
        <time>2025-01-28T18:07:22.256Z</time>
      </trkpt>
      <trkpt lat="48.82897" lon="-3.51934">
        <ele>17.76</ele>
        <time>2025-01-28T18:07:22.320Z</time>
      </trkpt>
      <trkpt lat="48.8289" lon="-3.51895">
        <ele>19.03</ele>
        <time>2025-01-28T18:07:22.392Z</time>
      </trkpt>
      <trkpt lat="48.82883" lon="-3.51857">
        <ele>20.33</ele>
        <time>2025-01-28T18:07:22.473Z</time>
      </trkpt>
      <trkpt lat="48.82875" lon="-3.51819">
        <ele>21.59</ele>
        <time>2025-01-28T18:07:22.563Z</time>
      </trkpt>
      <trkpt lat="48.82868" lon="-3.51781">
        <ele>22.81</ele>
        <time>2025-01-28T18:07:22.662Z</time>
      </trkpt>
      <trkpt lat="48.82861" lon="-3.51743">
        <ele>23.62</ele>
        <time>2025-01-28T18:07:22.769Z</time>
      </trkpt>
      <trkpt lat="48.82847" lon="-3.51712">
        <ele>24.11</ele>
        <time>2025-01-28T18:07:22.885Z</time>
      </trkpt>
      <trkpt lat="48.82833" lon="-3.51681">
        <ele>24.27</ele>
        <time>2025-01-28T18:07:23.009Z</time>
      </trkpt>
      <trkpt lat="48.8282" lon="-3.51659">
        <ele>24.23</ele>
        <time>2025-01-28T18:07:23.139Z</time>
      </trkpt>
      <trkpt lat="48.82794" lon="-3.51635">
        <ele>23.94</ele>
        <time>2025-01-28T18:07:23.279Z</time>
      </trkpt>
      <trkpt lat="48.8278" lon="-3.51626">
        <ele>23.67</ele>
        <time>2025-01-28T18:07:23.424Z</time>
      </trkpt>
      <trkpt lat="48.8278" lon="-3.51626">
        <ele>23.37</ele>
        <time>2025-01-28T18:07:23.569Z</time>
      </trkpt>
      <trkpt lat="48.82775" lon="-3.51623">
        <ele>23.03</ele>
        <time>2025-01-28T18:07:23.716Z</time>
      </trkpt>
      <trkpt lat="48.82773" lon="-3.51618">
        <ele>22.7</ele>
        <time>2025-01-28T18:07:23.865Z</time>
      </trkpt>
      <trkpt lat="48.82766" lon="-3.51614">
        <ele>22.34</ele>
        <time>2025-01-28T18:07:24.016Z</time>
      </trkpt>
      <trkpt lat="48.82762" lon="-3.51618">
        <ele>21.97</ele>
        <time>2025-01-28T18:07:24.169Z</time>
      </trkpt>
      <trkpt lat="48.82739" lon="-3.51608">
        <ele>21.57</ele>
        <time>2025-01-28T18:07:24.329Z</time>
      </trkpt>
      <trkpt lat="48.82717" lon="-3.51597">
        <ele>21.21</ele>
        <time>2025-01-28T18:07:24.497Z</time>
      </trkpt>
      <trkpt lat="48.82704" lon="-3.51588">
        <ele>20.95</ele>
        <time>2025-01-28T18:07:24.670Z</time>
      </trkpt>
      <trkpt lat="48.82684" lon="-3.51555">
        <ele>20.67</ele>
        <time>2025-01-28T18:07:24.853Z</time>
      </trkpt>
      <trkpt lat="48.82663" lon="-3.51522">
        <ele>20.38</ele>
        <time>2025-01-28T18:07:25.046Z</time>
      </trkpt>
      <trkpt lat="48.82663" lon="-3.51522">
        <ele>20.1</ele>
        <time>2025-01-28T18:07:25.239Z</time>
      </trkpt>
      <trkpt lat="48.8265" lon="-3.51537">
        <ele>19.79</ele>
        <time>2025-01-28T18:07:25.437Z</time>
      </trkpt>
      <trkpt lat="48.82633" lon="-3.51543">
        <ele>19.44</ele>
        <time>2025-01-28T18:07:25.641Z</time>
      </trkpt>
      <trkpt lat="48.8262" lon="-3.51541">
        <ele>19.07</ele>
        <time>2025-01-28T18:07:25.850Z</time>
      </trkpt>
      <trkpt lat="48.82617" lon="-3.51538">
        <ele>18.75</ele>
        <time>2025-01-28T18:07:26.060Z</time>
      </trkpt>
      <trkpt lat="48.82595" lon="-3.51521">
        <ele>18.43</ele>
        <time>2025-01-28T18:07:26.278Z</time>
      </trkpt>
      <trkpt lat="48.82573" lon="-3.51505">
        <ele>18.08</ele>
        <time>2025-01-28T18:07:26.504Z</time>
      </trkpt>
      <trkpt lat="48.82565" lon="-3.51494">
        <ele>17.79</ele>
        <time>2025-01-28T18:07:26.734Z</time>
      </trkpt>
      <trkpt lat="48.82552" lon="-3.51468">
        <ele>17.6</ele>
        <time>2025-01-28T18:07:26.971Z</time>
      </trkpt>
      <trkpt lat="48.8253" lon="-3.51451">
        <ele>17.41</ele>
        <time>2025-01-28T18:07:27.216Z</time>
      </trkpt>
      <trkpt lat="48.8253" lon="-3.51451">
        <ele>17.19</ele>
        <time>2025-01-28T18:07:27.461Z</time>
      </trkpt>
      <trkpt lat="48.8253" lon="-3.51451">
        <ele>17.41</ele>
        <time>2025-01-28T18:07:27.706Z</time>
      </trkpt>
      <trkpt lat="48.82535" lon="-3.51442">
        <ele>16.8</ele>
        <time>2025-01-28T18:07:27.954Z</time>
      </trkpt>
      <trkpt lat="48.82503" lon="-3.5144">
        <ele>16.46</ele>
        <time>2025-01-28T18:07:28.212Z</time>
      </trkpt>
      <trkpt lat="48.82472" lon="-3.51438">
        <ele>16.21</ele>
        <time>2025-01-28T18:07:28.480Z</time>
      </trkpt>
      <trkpt lat="48.82447" lon="-3.51429">
        <ele>16.04</ele>
        <time>2025-01-28T18:07:28.757Z</time>
      </trkpt>
      <trkpt lat="48.82429" lon="-3.51414">
        <ele>15.96</ele>
        <time>2025-01-28T18:07:29.041Z</time>
      </trkpt>
      <trkpt lat="48.82413" lon="-3.514">
        <ele>15.82</ele>
        <time>2025-01-28T18:07:29.331Z</time>
      </trkpt>
      <trkpt lat="48.82397" lon="-3.51387">
        <ele>15.67</ele>
        <time>2025-01-28T18:07:29.627Z</time>
      </trkpt>
      <trkpt lat="48.82397" lon="-3.51387">
        <ele>15.62</ele>
        <time>2025-01-28T18:07:29.923Z</time>
      </trkpt>
      <trkpt lat="48.8238" lon="-3.51411">
        <ele>15.55</ele>
        <time>2025-01-28T18:07:30.227Z</time>
      </trkpt>
      <trkpt lat="48.82363" lon="-3.51436">
        <ele>15.56</ele>
        <time>2025-01-28T18:07:30.539Z</time>
      </trkpt>
      <trkpt lat="48.82352" lon="-3.51462">
        <ele>15.62</ele>
        <time>2025-01-28T18:07:30.858Z</time>
      </trkpt>
      <trkpt lat="48.82352" lon="-3.51462">
        <ele>15.74</ele>
        <time>2025-01-28T18:07:31.177Z</time>
      </trkpt>
      <trkpt lat="48.82336" lon="-3.51484">
        <ele>15.91</ele>
        <time>2025-01-28T18:07:31.503Z</time>
      </trkpt>
      <trkpt lat="48.8232" lon="-3.51507">
        <ele>16.15</ele>
        <time>2025-01-28T18:07:31.836Z</time>
      </trkpt>
      <trkpt lat="48.82309" lon="-3.51515">
        <ele>16.41</ele>
        <time>2025-01-28T18:07:32.173Z</time>
      </trkpt>
      <trkpt lat="48.82304" lon="-3.51514">
        <ele>16.68</ele>
        <time>2025-01-28T18:07:32.512Z</time>
      </trkpt>
      <trkpt lat="48.82298" lon="-3.51513">
        <ele>16.97</ele>
        <time>2025-01-28T18:07:32.853Z</time>
      </trkpt>
      <trkpt lat="48.82279" lon="-3.51483">
        <ele>17.31</ele>
        <time>2025-01-28T18:07:33.203Z</time>
      </trkpt>
      <trkpt lat="48.82266" lon="-3.51463">
        <ele>17.66</ele>
        <time>2025-01-28T18:07:33.559Z</time>
      </trkpt>
      <trkpt lat="48.82253" lon="-3.51442">
        <ele>17.97</ele>
        <time>2025-01-28T18:07:33.922Z</time>
      </trkpt>
      <trkpt lat="48.82247" lon="-3.51447">
        <ele>18.25</ele>
        <time>2025-01-28T18:07:34.287Z</time>
      </trkpt>
      <trkpt lat="48.82246" lon="-3.51448">
        <ele>18.5</ele>
        <time>2025-01-28T18:07:34.652Z</time>
      </trkpt>
      <trkpt lat="48.82232" lon="-3.51475">
        <ele>18.76</ele>
        <time>2025-01-28T18:07:35.025Z</time>
      </trkpt>
      <trkpt lat="48.82213" lon="-3.51451">
        <ele>18.96</ele>
        <time>2025-01-28T18:07:35.406Z</time>
      </trkpt>
      <trkpt lat="48.82189" lon="-3.51449">
        <ele>19.11</ele>
        <time>2025-01-28T18:07:35.795Z</time>
      </trkpt>
      <trkpt lat="48.82177" lon="-3.5142">
        <ele>19.15</ele>
        <time>2025-01-28T18:07:36.192Z</time>
      </trkpt>
      <trkpt lat="48.82165" lon="-3.51391">
        <ele>19.23</ele>
        <time>2025-01-28T18:07:36.596Z</time>
      </trkpt>
      <trkpt lat="48.82155" lon="-3.51359">
        <ele>19.3</ele>
        <time>2025-01-28T18:07:37.008Z</time>
      </trkpt>
      <trkpt lat="48.82153" lon="-3.51369">
        <ele>19.28</ele>
        <time>2025-01-28T18:07:37.423Z</time>
      </trkpt>
      <trkpt lat="48.8215" lon="-3.51372">
        <ele>19.21</ele>
        <time>2025-01-28T18:07:37.839Z</time>
      </trkpt>
      <trkpt lat="48.82126" lon="-3.51398">
        <ele>19.15</ele>
        <time>2025-01-28T18:07:38.264Z</time>
      </trkpt>
      <trkpt lat="48.82103" lon="-3.51423">
        <ele>18.95</ele>
        <time>2025-01-28T18:07:38.699Z</time>
      </trkpt>
      <trkpt lat="48.8209" lon="-3.51449">
        <ele>18.69</ele>
        <time>2025-01-28T18:07:39.141Z</time>
      </trkpt>
      <trkpt lat="48.82077" lon="-3.51475">
        <ele>18.39</ele>
        <time>2025-01-28T18:07:39.590Z</time>
      </trkpt>
      <trkpt lat="48.82065" lon="-3.51479">
        <ele>18.04</ele>
        <time>2025-01-28T18:07:40.043Z</time>
      </trkpt>
      <trkpt lat="48.8205" lon="-3.51468">
        <ele>17.65</ele>
        <time>2025-01-28T18:07:40.502Z</time>
      </trkpt>
      <trkpt lat="48.82045" lon="-3.51468">
        <ele>17.26</ele>
        <time>2025-01-28T18:07:40.962Z</time>
      </trkpt>
      <trkpt lat="48.82028" lon="-3.51502">
        <ele>16.79</ele>
        <time>2025-01-28T18:07:41.432Z</time>
      </trkpt>
      <trkpt lat="48.82017" lon="-3.51505">
        <ele>16.32</ele>
        <time>2025-01-28T18:07:41.906Z</time>
      </trkpt>
      <trkpt lat="48.82017" lon="-3.51505">
        <ele>15.9</ele>
        <time>2025-01-28T18:07:42.380Z</time>
      </trkpt>
      <trkpt lat="48.82017" lon="-3.51505">
        <ele>16.32</ele>
        <time>2025-01-28T18:07:42.854Z</time>
      </trkpt>
      <trkpt lat="48.82017" lon="-3.51496">
        <ele>15.08</ele>
        <time>2025-01-28T18:07:43.329Z</time>
      </trkpt>
      <trkpt lat="48.82002" lon="-3.51481">
        <ele>14.68</ele>
        <time>2025-01-28T18:07:43.810Z</time>
      </trkpt>
      <trkpt lat="48.81974" lon="-3.51477">
        <ele>14.18</ele>
        <time>2025-01-28T18:07:44.301Z</time>
      </trkpt>
      <trkpt lat="48.81947" lon="-3.51473">
        <ele>13.81</ele>
        <time>2025-01-28T18:07:44.801Z</time>
      </trkpt>
      <trkpt lat="48.81919" lon="-3.5147">
        <ele>13.41</ele>
        <time>2025-01-28T18:07:45.310Z</time>
      </trkpt>
      <trkpt lat="48.81891" lon="-3.51466">
        <ele>13.07</ele>
        <time>2025-01-28T18:07:45.829Z</time>
      </trkpt>
      <trkpt lat="48.81863" lon="-3.51462">
        <ele>12.79</ele>
        <time>2025-01-28T18:07:46.357Z</time>
      </trkpt>
      <trkpt lat="48.81835" lon="-3.51458">
        <ele>12.66</ele>
        <time>2025-01-28T18:07:46.894Z</time>
      </trkpt>
      <trkpt lat="48.81807" lon="-3.51455">
        <ele>12.61</ele>
        <time>2025-01-28T18:07:47.441Z</time>
      </trkpt>
      <trkpt lat="48.81779" lon="-3.51451">
        <ele>12.47</ele>
        <time>2025-01-28T18:07:47.997Z</time>
      </trkpt>
      <trkpt lat="48.81755" lon="-3.51447">
        <ele>12.39</ele>
        <time>2025-01-28T18:07:48.561Z</time>
      </trkpt>
      <trkpt lat="48.8173" lon="-3.51442">
        <ele>12.28</ele>
        <time>2025-01-28T18:07:49.134Z</time>
      </trkpt>
      <trkpt lat="48.8173" lon="-3.51442">
        <ele>12.26</ele>
        <time>2025-01-28T18:07:49.707Z</time>
      </trkpt>
      <trkpt lat="48.8173" lon="-3.51442">
        <ele>12.28</ele>
        <time>2025-01-28T18:07:50.280Z</time>
      </trkpt>
      <trkpt lat="48.81734" lon="-3.51481">
        <ele>12.33</ele>
        <time>2025-01-28T18:07:50.861Z</time>
      </trkpt>
      <trkpt lat="48.81716" lon="-3.515">
        <ele>12.42</ele>
        <time>2025-01-28T18:07:51.450Z</time>
      </trkpt>
      <trkpt lat="48.81697" lon="-3.51518">
        <ele>12.58</ele>
        <time>2025-01-28T18:07:52.046Z</time>
      </trkpt>
      <trkpt lat="48.81678" lon="-3.51537">
        <ele>12.78</ele>
        <time>2025-01-28T18:07:52.650Z</time>
      </trkpt>
      <trkpt lat="48.81664" lon="-3.5155">
        <ele>12.99</ele>
        <time>2025-01-28T18:07:53.259Z</time>
      </trkpt>
      <trkpt lat="48.8165" lon="-3.51563">
        <ele>13.22</ele>
        <time>2025-01-28T18:07:53.874Z</time>
      </trkpt>
      <trkpt lat="48.81625" lon="-3.51573">
        <ele>13.4</ele>
        <time>2025-01-28T18:07:54.497Z</time>
      </trkpt>
      <trkpt lat="48.81599" lon="-3.51584">
        <ele>13.61</ele>
        <time>2025-01-28T18:07:55.129Z</time>
      </trkpt>
      <trkpt lat="48.81583" lon="-3.51596">
        <ele>13.86</ele>
        <time>2025-01-28T18:07:55.767Z</time>
      </trkpt>
      <trkpt lat="48.81567" lon="-3.51608">
        <ele>14.17</ele>
        <time>2025-01-28T18:07:56.411Z</time>
      </trkpt>
      <trkpt lat="48.81547" lon="-3.51625">
        <ele>14.56</ele>
        <time>2025-01-28T18:07:57.063Z</time>
      </trkpt>
      <trkpt lat="48.81531" lon="-3.51649">
        <ele>14.97</ele>
        <time>2025-01-28T18:07:57.722Z</time>
      </trkpt>
      <trkpt lat="48.81515" lon="-3.51673">
        <ele>15.41</ele>
        <time>2025-01-28T18:07:58.389Z</time>
      </trkpt>
      <trkpt lat="48.81498" lon="-3.51698">
        <ele>15.83</ele>
        <time>2025-01-28T18:07:59.064Z</time>
      </trkpt>
      <trkpt lat="48.81476" lon="-3.51731">
        <ele>16.35</ele>
        <time>2025-01-28T18:07:59.749Z</time>
      </trkpt>
      <trkpt lat="48.81454" lon="-3.51765">
        <ele>16.9</ele>
        <time>2025-01-28T18:08:00.445Z</time>
      </trkpt>
      <trkpt lat="48.81432" lon="-3.51799">
        <ele>17.59</ele>
        <time>2025-01-28T18:08:01.151Z</time>
      </trkpt>
      <trkpt lat="48.81417" lon="-3.51816">
        <ele>18.19</ele>
        <time>2025-01-28T18:08:01.863Z</time>
      </trkpt>
      <trkpt lat="48.81396" lon="-3.51831">
        <ele>18.77</ele>
        <time>2025-01-28T18:08:02.583Z</time>
      </trkpt>
      <trkpt lat="48.81375" lon="-3.51847">
        <ele>19.26</ele>
        <time>2025-01-28T18:08:03.311Z</time>
      </trkpt>
      <trkpt lat="48.81354" lon="-3.51863">
        <ele>19.8</ele>
        <time>2025-01-28T18:08:04.047Z</time>
      </trkpt>
      <trkpt lat="48.81334" lon="-3.51875">
        <ele>20.4</ele>
        <time>2025-01-28T18:08:04.790Z</time>
      </trkpt>
      <trkpt lat="48.81314" lon="-3.51887">
        <ele>21.01</ele>
        <time>2025-01-28T18:08:05.540Z</time>
      </trkpt>
      <trkpt lat="48.81314" lon="-3.51887">
        <ele>21.6</ele>
        <time>2025-01-28T18:08:06.290Z</time>
      </trkpt>
      <trkpt lat="48.81288" lon="-3.51897">
        <ele>22.25</ele>
        <time>2025-01-28T18:08:07.049Z</time>
      </trkpt>
      <trkpt lat="48.81263" lon="-3.51907">
        <ele>23</ele>
        <time>2025-01-28T18:08:07.817Z</time>
      </trkpt>
      <trkpt lat="48.81238" lon="-3.51917">
        <ele>23.78</ele>
        <time>2025-01-28T18:08:08.593Z</time>
      </trkpt>
      <trkpt lat="48.81213" lon="-3.51927">
        <ele>24.47</ele>
        <time>2025-01-28T18:08:09.378Z</time>
      </trkpt>
      <trkpt lat="48.81213" lon="-3.51927">
        <ele>25.1</ele>
        <time>2025-01-28T18:08:10.163Z</time>
      </trkpt>
      <trkpt lat="48.81208" lon="-3.51904">
        <ele>25.66</ele>
        <time>2025-01-28T18:08:10.953Z</time>
      </trkpt>
      <trkpt lat="48.81202" lon="-3.51897">
        <ele>26.29</ele>
        <time>2025-01-28T18:08:11.746Z</time>
      </trkpt>
      <trkpt lat="48.81196" lon="-3.51895">
        <ele>26.94</ele>
        <time>2025-01-28T18:08:12.541Z</time>
      </trkpt>
      <trkpt lat="48.81196" lon="-3.51895">
        <ele>27.6</ele>
        <time>2025-01-28T18:08:13.336Z</time>
      </trkpt>
      <trkpt lat="48.81172" lon="-3.51891">
        <ele>28.28</ele>
        <time>2025-01-28T18:08:14.139Z</time>
      </trkpt>
      <trkpt lat="48.81146" lon="-3.51876">
        <ele>28.99</ele>
        <time>2025-01-28T18:08:14.951Z</time>
      </trkpt>
      <trkpt lat="48.8112" lon="-3.51861">
        <ele>29.78</ele>
        <time>2025-01-28T18:08:15.773Z</time>
      </trkpt>
      <trkpt lat="48.81101" lon="-3.51859">
        <ele>30.57</ele>
        <time>2025-01-28T18:08:16.601Z</time>
      </trkpt>
      <trkpt lat="48.81093" lon="-3.51895">
        <ele>31.38</ele>
        <time>2025-01-28T18:08:17.438Z</time>
      </trkpt>
      <trkpt lat="48.81073" lon="-3.51929">
        <ele>32.26</ele>
        <time>2025-01-28T18:08:18.285Z</time>
      </trkpt>
      <trkpt lat="48.81069" lon="-3.51949">
        <ele>32.92</ele>
        <time>2025-01-28T18:08:19.136Z</time>
      </trkpt>
      <trkpt lat="48.81066" lon="-3.51943">
        <ele>33.44</ele>
        <time>2025-01-28T18:08:19.989Z</time>
      </trkpt>
      <trkpt lat="48.81069" lon="-3.51949">
        <ele>32.92</ele>
        <time>2025-01-28T18:08:20.843Z</time>
      </trkpt>
      <trkpt lat="48.81082" lon="-3.51979">
        <ele>34.2</ele>
        <time>2025-01-28T18:08:21.705Z</time>
      </trkpt>
      <trkpt lat="48.81086" lon="-3.51992">
        <ele>34.49</ele>
        <time>2025-01-28T18:08:22.570Z</time>
      </trkpt>
      <trkpt lat="48.8109" lon="-3.51994">
        <ele>34.68</ele>
        <time>2025-01-28T18:08:23.437Z</time>
      </trkpt>
      <trkpt lat="48.81095" lon="-3.52015">
        <ele>34.85</ele>
        <time>2025-01-28T18:08:24.309Z</time>
      </trkpt>
      <trkpt lat="48.81101" lon="-3.52026">
        <ele>34.9</ele>
        <time>2025-01-28T18:08:25.184Z</time>
      </trkpt>
      <trkpt lat="48.81118" lon="-3.52039">
        <ele>34.79</ele>
        <time>2025-01-28T18:08:26.065Z</time>
      </trkpt>
      <trkpt lat="48.81125" lon="-3.5205">
        <ele>34.67</ele>
        <time>2025-01-28T18:08:26.950Z</time>
      </trkpt>
      <trkpt lat="48.8114" lon="-3.52077">
        <ele>34.47</ele>
        <time>2025-01-28T18:08:27.843Z</time>
      </trkpt>
      <trkpt lat="48.81144" lon="-3.52084">
        <ele>34.28</ele>
        <time>2025-01-28T18:08:28.737Z</time>
      </trkpt>
      <trkpt lat="48.81155" lon="-3.52118">
        <ele>34</ele>
        <time>2025-01-28T18:08:29.640Z</time>
      </trkpt>
      <trkpt lat="48.81176" lon="-3.52153">
        <ele>33.68</ele>
        <time>2025-01-28T18:08:30.553Z</time>
      </trkpt>
      <trkpt lat="48.81198" lon="-3.52187">
        <ele>33.24</ele>
        <time>2025-01-28T18:08:31.477Z</time>
      </trkpt>
      <trkpt lat="48.81214" lon="-3.52201">
        <ele>32.75</ele>
        <time>2025-01-28T18:08:32.407Z</time>
      </trkpt>
      <trkpt lat="48.8123" lon="-3.52215">
        <ele>32.21</ele>
        <time>2025-01-28T18:08:33.343Z</time>
      </trkpt>
      <trkpt lat="48.81238" lon="-3.52234">
        <ele>31.71</ele>
        <time>2025-01-28T18:08:34.284Z</time>
      </trkpt>
      <trkpt lat="48.8126" lon="-3.52246">
        <ele>31.11</ele>
        <time>2025-01-28T18:08:35.233Z</time>
      </trkpt>
      <trkpt lat="48.81281" lon="-3.52258">
        <ele>30.62</ele>
        <time>2025-01-28T18:08:36.189Z</time>
      </trkpt>
      <trkpt lat="48.81305" lon="-3.5226">
        <ele>29.98</ele>
        <time>2025-01-28T18:08:37.153Z</time>
      </trkpt>
      <trkpt lat="48.81311" lon="-3.52266">
        <ele>29.24</ele>
        <time>2025-01-28T18:08:38.120Z</time>
      </trkpt>
      <trkpt lat="48.81331" lon="-3.52301">
        <ele>28.44</ele>
        <time>2025-01-28T18:08:39.097Z</time>
      </trkpt>
      <trkpt lat="48.8135" lon="-3.52335">
        <ele>27.65</ele>
        <time>2025-01-28T18:08:40.084Z</time>
      </trkpt>
      <trkpt lat="48.81349" lon="-3.52368">
        <ele>26.67</ele>
        <time>2025-01-28T18:08:41.078Z</time>
      </trkpt>
      <trkpt lat="48.81348" lon="-3.52401">
        <ele>25.59</ele>
        <time>2025-01-28T18:08:42.079Z</time>
      </trkpt>
      <trkpt lat="48.81359" lon="-3.52432">
        <ele>24.48</ele>
        <time>2025-01-28T18:08:43.088Z</time>
      </trkpt>
      <trkpt lat="48.81369" lon="-3.52462">
        <ele>23.21</ele>
        <time>2025-01-28T18:08:44.104Z</time>
      </trkpt>
      <trkpt lat="48.81389" lon="-3.52498">
        <ele>21.82</ele>
        <time>2025-01-28T18:08:45.131Z</time>
      </trkpt>
      <trkpt lat="48.81382" lon="-3.52527">
        <ele>20.58</ele>
        <time>2025-01-28T18:08:46.165Z</time>
      </trkpt>
      <trkpt lat="48.81376" lon="-3.52556">
        <ele>19.34</ele>
        <time>2025-01-28T18:08:47.205Z</time>
      </trkpt>
      <trkpt lat="48.81378" lon="-3.52582">
        <ele>18.1</ele>
        <time>2025-01-28T18:08:48.251Z</time>
      </trkpt>
      <trkpt lat="48.81402" lon="-3.52607">
        <ele>16.99</ele>
        <time>2025-01-28T18:08:49.307Z</time>
      </trkpt>
      <trkpt lat="48.81408" lon="-3.52631">
        <ele>15.99</ele>
        <time>2025-01-28T18:08:50.368Z</time>
      </trkpt>
      <trkpt lat="48.81414" lon="-3.52655">
        <ele>15.03</ele>
        <time>2025-01-28T18:08:51.435Z</time>
      </trkpt>
      <trkpt lat="48.81427" lon="-3.52677">
        <ele>14.12</ele>
        <time>2025-01-28T18:08:52.508Z</time>
      </trkpt>
      <trkpt lat="48.81429" lon="-3.52683">
        <ele>13.29</ele>
        <time>2025-01-28T18:08:53.583Z</time>
      </trkpt>
      <trkpt lat="48.8141" lon="-3.52707">
        <ele>12.44</ele>
        <time>2025-01-28T18:08:54.666Z</time>
      </trkpt>
      <trkpt lat="48.8139" lon="-3.52731">
        <ele>11.7</ele>
        <time>2025-01-28T18:08:55.758Z</time>
      </trkpt>
      <trkpt lat="48.8137" lon="-3.52755">
        <ele>11.12</ele>
        <time>2025-01-28T18:08:56.858Z</time>
      </trkpt>
      <trkpt lat="48.8135" lon="-3.52779">
        <ele>10.66</ele>
        <time>2025-01-28T18:08:57.967Z</time>
      </trkpt>
      <trkpt lat="48.8135" lon="-3.52779">
        <ele>10.23</ele>
        <time>2025-01-28T18:08:59.076Z</time>
      </trkpt>
      <trkpt lat="48.81326" lon="-3.52807">
        <ele>9.82</ele>
        <time>2025-01-28T18:09:00.195Z</time>
      </trkpt>
      <trkpt lat="48.81303" lon="-3.52836">
        <ele>9.53</ele>
        <time>2025-01-28T18:09:01.324Z</time>
      </trkpt>
      <trkpt lat="48.81279" lon="-3.52864">
        <ele>9.25</ele>
        <time>2025-01-28T18:09:02.463Z</time>
      </trkpt>
      <trkpt lat="48.81256" lon="-3.52893">
        <ele>9.11</ele>
        <time>2025-01-28T18:09:03.612Z</time>
      </trkpt>
      <trkpt lat="48.81232" lon="-3.52921">
        <ele>9.04</ele>
        <time>2025-01-28T18:09:04.771Z</time>
      </trkpt>
      <trkpt lat="48.81216" lon="-3.52942">
        <ele>9.05</ele>
        <time>2025-01-28T18:09:05.937Z</time>
      </trkpt>
      <trkpt lat="48.81199" lon="-3.52962">
        <ele>9.12</ele>
        <time>2025-01-28T18:09:07.110Z</time>
      </trkpt>
      <trkpt lat="48.81183" lon="-3.52983">
        <ele>9.23</ele>
        <time>2025-01-28T18:09:08.291Z</time>
      </trkpt>
      <trkpt lat="48.81177" lon="-3.52979">
        <ele>9.44</ele>
        <time>2025-01-28T18:09:09.474Z</time>
      </trkpt>
      <trkpt lat="48.81174" lon="-3.52977">
        <ele>9.73</ele>
        <time>2025-01-28T18:09:10.658Z</time>
      </trkpt>
      <trkpt lat="48.81168" lon="-3.52977">
        <ele>10.11</ele>
        <time>2025-01-28T18:09:11.844Z</time>
      </trkpt>
      <trkpt lat="48.81152" lon="-3.52983">
        <ele>10.58</ele>
        <time>2025-01-28T18:09:13.035Z</time>
      </trkpt>
      <trkpt lat="48.81135" lon="-3.52989">
        <ele>11.14</ele>
        <time>2025-01-28T18:09:14.232Z</time>
      </trkpt>
      <trkpt lat="48.81113" lon="-3.52993">
        <ele>11.8</ele>
        <time>2025-01-28T18:09:15.437Z</time>
      </trkpt>
      <trkpt lat="48.8109" lon="-3.52996">
        <ele>12.49</ele>
        <time>2025-01-28T18:09:16.649Z</time>
      </trkpt>
      <trkpt lat="48.81082" lon="-3.52987">
        <ele>13.15</ele>
        <time>2025-01-28T18:09:17.864Z</time>
      </trkpt>
      <trkpt lat="48.81072" lon="-3.5296">
        <ele>13.83</ele>
        <time>2025-01-28T18:09:19.086Z</time>
      </trkpt>
      <trkpt lat="48.81063" lon="-3.52934">
        <ele>14.5</ele>
        <time>2025-01-28T18:09:20.315Z</time>
      </trkpt>
      <trkpt lat="48.81052" lon="-3.52921">
        <ele>15.14</ele>
        <time>2025-01-28T18:09:21.549Z</time>
      </trkpt>
      <trkpt lat="48.81032" lon="-3.52934">
        <ele>15.86</ele>
        <time>2025-01-28T18:09:22.790Z</time>
      </trkpt>
      <trkpt lat="48.81014" lon="-3.52958">
        <ele>16.61</ele>
        <time>2025-01-28T18:09:24.039Z</time>
      </trkpt>
      <trkpt lat="48.80996" lon="-3.52983">
        <ele>17.31</ele>
        <time>2025-01-28T18:09:25.296Z</time>
      </trkpt>
      <trkpt lat="48.80977" lon="-3.52987">
        <ele>18.07</ele>
        <time>2025-01-28T18:09:26.559Z</time>
      </trkpt>
      <trkpt lat="48.80957" lon="-3.52992">
        <ele>18.88</ele>
        <time>2025-01-28T18:09:27.829Z</time>
      </trkpt>
      <trkpt lat="48.80957" lon="-3.52992">
        <ele>19.67</ele>
        <time>2025-01-28T18:09:29.099Z</time>
      </trkpt>
      <trkpt lat="48.80951" lon="-3.52985">
        <ele>20.51</ele>
        <time>2025-01-28T18:09:30.371Z</time>
      </trkpt>
      <trkpt lat="48.80947" lon="-3.52972">
        <ele>21.36</ele>
        <time>2025-01-28T18:09:31.647Z</time>
      </trkpt>
      <trkpt lat="48.80927" lon="-3.52951">
        <ele>22.27</ele>
        <time>2025-01-28T18:09:32.931Z</time>
      </trkpt>
      <trkpt lat="48.80917" lon="-3.52931">
        <ele>23.16</ele>
        <time>2025-01-28T18:09:34.220Z</time>
      </trkpt>
      <trkpt lat="48.80906" lon="-3.52912">
        <ele>24.02</ele>
        <time>2025-01-28T18:09:35.515Z</time>
      </trkpt>
      <trkpt lat="48.80898" lon="-3.5289">
        <ele>24.82</ele>
        <time>2025-01-28T18:09:36.815Z</time>
      </trkpt>
      <trkpt lat="48.80891" lon="-3.52867">
        <ele>25.57</ele>
        <time>2025-01-28T18:09:38.121Z</time>
      </trkpt>
      <trkpt lat="48.80887" lon="-3.52863">
        <ele>26.17</ele>
        <time>2025-01-28T18:09:39.429Z</time>
      </trkpt>
      <trkpt lat="48.80876" lon="-3.52865">
        <ele>26.7</ele>
        <time>2025-01-28T18:09:40.740Z</time>
      </trkpt>
      <trkpt lat="48.80862" lon="-3.5287">
        <ele>27.15</ele>
        <time>2025-01-28T18:09:42.056Z</time>
      </trkpt>
      <trkpt lat="48.80859" lon="-3.52871">
        <ele>27.4</ele>
        <time>2025-01-28T18:09:43.373Z</time>
      </trkpt>
      <trkpt lat="48.80859" lon="-3.52878">
        <ele>27.49</ele>
        <time>2025-01-28T18:09:44.692Z</time>
      </trkpt>
      <trkpt lat="48.80863" lon="-3.52884">
        <ele>27.43</ele>
        <time>2025-01-28T18:09:46.013Z</time>
      </trkpt>
      <trkpt lat="48.80863" lon="-3.52895">
        <ele>27.27</ele>
        <time>2025-01-28T18:09:47.336Z</time>
      </trkpt>
      <trkpt lat="48.80859" lon="-3.52934">
        <ele>26.94</ele>
        <time>2025-01-28T18:09:48.668Z</time>
      </trkpt>
      <trkpt lat="48.80861" lon="-3.52959">
        <ele>26.48</ele>
        <time>2025-01-28T18:09:50.005Z</time>
      </trkpt>
      <trkpt lat="48.80865" lon="-3.52968">
        <ele>26.03</ele>
        <time>2025-01-28T18:09:51.345Z</time>
      </trkpt>
      <trkpt lat="48.80863" lon="-3.52994">
        <ele>25.55</ele>
        <time>2025-01-28T18:09:52.690Z</time>
      </trkpt>
      <trkpt lat="48.80865" lon="-3.53013">
        <ele>24.98</ele>
        <time>2025-01-28T18:09:54.040Z</time>
      </trkpt>
      <trkpt lat="48.80869" lon="-3.53034">
        <ele>24.34</ele>
        <time>2025-01-28T18:09:55.395Z</time>
      </trkpt>
      <trkpt lat="48.8088" lon="-3.53062">
        <ele>23.6</ele>
        <time>2025-01-28T18:09:56.757Z</time>
      </trkpt>
      <trkpt lat="48.80876" lon="-3.53067">
        <ele>22.97</ele>
        <time>2025-01-28T18:09:58.120Z</time>
      </trkpt>
      <trkpt lat="48.80872" lon="-3.53088">
        <ele>22.3</ele>
        <time>2025-01-28T18:09:59.488Z</time>
      </trkpt>
      <trkpt lat="48.80869" lon="-3.53103">
        <ele>21.67</ele>
        <time>2025-01-28T18:10:00.860Z</time>
      </trkpt>
      <trkpt lat="48.80874" lon="-3.53135">
        <ele>20.96</ele>
        <time>2025-01-28T18:10:02.239Z</time>
      </trkpt>
      <trkpt lat="48.80882" lon="-3.53163">
        <ele>20.13</ele>
        <time>2025-01-28T18:10:03.625Z</time>
      </trkpt>
      <trkpt lat="48.80884" lon="-3.53198">
        <ele>19.3</ele>
        <time>2025-01-28T18:10:05.018Z</time>
      </trkpt>
      <trkpt lat="48.80869" lon="-3.53213">
        <ele>18.56</ele>
        <time>2025-01-28T18:10:06.417Z</time>
      </trkpt>
      <trkpt lat="48.8085" lon="-3.53215">
        <ele>17.85</ele>
        <time>2025-01-28T18:10:07.823Z</time>
      </trkpt>
      <trkpt lat="48.80831" lon="-3.53217">
        <ele>17.17</ele>
        <time>2025-01-28T18:10:09.235Z</time>
      </trkpt>
      <trkpt lat="48.80804" lon="-3.53227">
        <ele>16.38</ele>
        <time>2025-01-28T18:10:10.657Z</time>
      </trkpt>
      <trkpt lat="48.80777" lon="-3.53236">
        <ele>15.46</ele>
        <time>2025-01-28T18:10:12.088Z</time>
      </trkpt>
      <trkpt lat="48.8076" lon="-3.53249">
        <ele>14.54</ele>
        <time>2025-01-28T18:10:13.525Z</time>
      </trkpt>
      <trkpt lat="48.8076" lon="-3.53249">
        <ele>13.75</ele>
        <time>2025-01-28T18:10:14.962Z</time>
      </trkpt>
      <trkpt lat="48.80757" lon="-3.53248">
        <ele>12.96</ele>
        <time>2025-01-28T18:10:16.400Z</time>
      </trkpt>
      <trkpt lat="48.8073" lon="-3.53243">
        <ele>12.15</ele>
        <time>2025-01-28T18:10:17.847Z</time>
      </trkpt>
      <trkpt lat="48.80703" lon="-3.53237">
        <ele>11.31</ele>
        <time>2025-01-28T18:10:19.303Z</time>
      </trkpt>
      <trkpt lat="48.80676" lon="-3.53232">
        <ele>10.55</ele>
        <time>2025-01-28T18:10:20.768Z</time>
      </trkpt>
      <trkpt lat="48.80666" lon="-3.5324">
        <ele>9.91</ele>
        <time>2025-01-28T18:10:22.237Z</time>
      </trkpt>
      <trkpt lat="48.80655" lon="-3.53258">
        <ele>9.33</ele>
        <time>2025-01-28T18:10:23.712Z</time>
      </trkpt>
      <trkpt lat="48.80641" lon="-3.53272">
        <ele>8.83</ele>
        <time>2025-01-28T18:10:25.192Z</time>
      </trkpt>
      <trkpt lat="48.80627" lon="-3.53286">
        <ele>8.45</ele>
        <time>2025-01-28T18:10:26.678Z</time>
      </trkpt>
      <trkpt lat="48.8062" lon="-3.53306">
        <ele>8.17</ele>
        <time>2025-01-28T18:10:28.169Z</time>
      </trkpt>
      <trkpt lat="48.80618" lon="-3.53311">
        <ele>8.14</ele>
        <time>2025-01-28T18:10:29.661Z</time>
      </trkpt>
      <trkpt lat="48.80602" lon="-3.53291">
        <ele>8.35</ele>
        <time>2025-01-28T18:10:31.160Z</time>
      </trkpt>
      <trkpt lat="48.80586" lon="-3.53271">
        <ele>8.7</ele>
        <time>2025-01-28T18:10:32.666Z</time>
      </trkpt>
      <trkpt lat="48.80573" lon="-3.53247">
        <ele>9.21</ele>
        <time>2025-01-28T18:10:34.179Z</time>
      </trkpt>
      <trkpt lat="48.80559" lon="-3.53209">
        <ele>9.89</ele>
        <time>2025-01-28T18:10:35.701Z</time>
      </trkpt>
      <trkpt lat="48.80545" lon="-3.53172">
        <ele>10.72</ele>
        <time>2025-01-28T18:10:37.233Z</time>
      </trkpt>
      <trkpt lat="48.80538" lon="-3.53149">
        <ele>11.71</ele>
        <time>2025-01-28T18:10:38.770Z</time>
      </trkpt>
      <trkpt lat="48.8053" lon="-3.53127">
        <ele>12.85</ele>
        <time>2025-01-28T18:10:40.313Z</time>
      </trkpt>
      <trkpt lat="48.80528" lon="-3.53099">
        <ele>14.09</ele>
        <time>2025-01-28T18:10:41.862Z</time>
      </trkpt>
      <trkpt lat="48.80528" lon="-3.53052">
        <ele>15.42</ele>
        <time>2025-01-28T18:10:43.421Z</time>
      </trkpt>
      <trkpt lat="48.80535" lon="-3.53006">
        <ele>16.93</ele>
        <time>2025-01-28T18:10:44.991Z</time>
      </trkpt>
      <trkpt lat="48.80541" lon="-3.52962">
        <ele>18.51</ele>
        <time>2025-01-28T18:10:46.571Z</time>
      </trkpt>
      <trkpt lat="48.80538" lon="-3.52932">
        <ele>20.16</ele>
        <time>2025-01-28T18:10:48.157Z</time>
      </trkpt>
      <trkpt lat="48.80535" lon="-3.52904">
        <ele>21.9</ele>
        <time>2025-01-28T18:10:49.750Z</time>
      </trkpt>
      <trkpt lat="48.80528" lon="-3.52872">
        <ele>23.76</ele>
        <time>2025-01-28T18:10:51.350Z</time>
      </trkpt>
      <trkpt lat="48.80522" lon="-3.52841">
        <ele>25.47</ele>
        <time>2025-01-28T18:10:52.957Z</time>
      </trkpt>
      <trkpt lat="48.8052" lon="-3.52808">
        <ele>27.13</ele>
        <time>2025-01-28T18:10:54.571Z</time>
      </trkpt>
      <trkpt lat="48.80519" lon="-3.52775">
        <ele>28.77</ele>
        <time>2025-01-28T18:10:56.193Z</time>
      </trkpt>
      <trkpt lat="48.80517" lon="-3.52743">
        <ele>30.41</ele>
        <time>2025-01-28T18:10:57.822Z</time>
      </trkpt>
      <trkpt lat="48.80522" lon="-3.52715">
        <ele>32</ele>
        <time>2025-01-28T18:10:59.457Z</time>
      </trkpt>
      <trkpt lat="48.8053" lon="-3.52685">
        <ele>33.59</ele>
        <time>2025-01-28T18:11:01.099Z</time>
      </trkpt>
      <trkpt lat="48.80542" lon="-3.52664">
        <ele>35.09</ele>
        <time>2025-01-28T18:11:02.747Z</time>
      </trkpt>
      <trkpt lat="48.80554" lon="-3.52644">
        <ele>36.52</ele>
        <time>2025-01-28T18:11:04.401Z</time>
      </trkpt>
      <trkpt lat="48.80545" lon="-3.52627">
        <ele>37.83</ele>
        <time>2025-01-28T18:11:06.060Z</time>
      </trkpt>
      <trkpt lat="48.80525" lon="-3.52599">
        <ele>39.12</ele>
        <time>2025-01-28T18:11:07.728Z</time>
      </trkpt>
      <trkpt lat="48.80504" lon="-3.52571">
        <ele>40.4</ele>
        <time>2025-01-28T18:11:09.406Z</time>
      </trkpt>
      <trkpt lat="48.80484" lon="-3.52543">
        <ele>41.45</ele>
        <time>2025-01-28T18:11:11.093Z</time>
      </trkpt>
      <trkpt lat="48.80463" lon="-3.52515">
        <ele>42.31</ele>
        <time>2025-01-28T18:11:12.789Z</time>
      </trkpt>
      <trkpt lat="48.80442" lon="-3.52487">
        <ele>43.09</ele>
        <time>2025-01-28T18:11:14.494Z</time>
      </trkpt>
      <trkpt lat="48.80442" lon="-3.52486">
        <ele>43.77</ele>
        <time>2025-01-28T18:11:16.200Z</time>
      </trkpt>
      <trkpt lat="48.8043" lon="-3.52459">
        <ele>44.4</ele>
        <time>2025-01-28T18:11:17.913Z</time>
      </trkpt>
      <trkpt lat="48.80418" lon="-3.52431">
        <ele>44.95</ele>
        <time>2025-01-28T18:11:19.633Z</time>
      </trkpt>
      <trkpt lat="48.80406" lon="-3.52404">
        <ele>45.37</ele>
        <time>2025-01-28T18:11:21.360Z</time>
      </trkpt>
      <trkpt lat="48.80399" lon="-3.52393">
        <ele>45.69</ele>
        <time>2025-01-28T18:11:23.091Z</time>
      </trkpt>
      <trkpt lat="48.8038" lon="-3.52374">
        <ele>45.91</ele>
        <time>2025-01-28T18:11:24.829Z</time>
      </trkpt>
      <trkpt lat="48.80361" lon="-3.52354">
        <ele>46.02</ele>
        <time>2025-01-28T18:11:26.575Z</time>
      </trkpt>
      <trkpt lat="48.80348" lon="-3.52335">
        <ele>46.11</ele>
        <time>2025-01-28T18:11:28.327Z</time>
      </trkpt>
      <trkpt lat="48.80337" lon="-3.52311">
        <ele>46.15</ele>
        <time>2025-01-28T18:11:30.085Z</time>
      </trkpt>
      <trkpt lat="48.80327" lon="-3.52288">
        <ele>46.07</ele>
        <time>2025-01-28T18:11:31.850Z</time>
      </trkpt>
      <trkpt lat="48.80323" lon="-3.52293">
        <ele>45.93</ele>
        <time>2025-01-28T18:11:33.616Z</time>
      </trkpt>
      <trkpt lat="48.80303" lon="-3.52324">
        <ele>45.65</ele>
        <time>2025-01-28T18:11:35.392Z</time>
      </trkpt>
      <trkpt lat="48.80293" lon="-3.52345">
        <ele>45.37</ele>
        <time>2025-01-28T18:11:37.173Z</time>
      </trkpt>
      <trkpt lat="48.80284" lon="-3.52365">
        <ele>45.08</ele>
        <time>2025-01-28T18:11:38.960Z</time>
      </trkpt>
      <trkpt lat="48.80281" lon="-3.52378">
        <ele>44.78</ele>
        <time>2025-01-28T18:11:40.750Z</time>
      </trkpt>
      <trkpt lat="48.80277" lon="-3.52412">
        <ele>44.44</ele>
        <time>2025-01-28T18:11:42.548Z</time>
      </trkpt>
      <trkpt lat="48.80271" lon="-3.52448">
        <ele>44.16</ele>
        <time>2025-01-28T18:11:44.354Z</time>
      </trkpt>
      <trkpt lat="48.80264" lon="-3.52483">
        <ele>43.77</ele>
        <time>2025-01-28T18:11:46.168Z</time>
      </trkpt>
      <trkpt lat="48.80254" lon="-3.52515">
        <ele>43.24</ele>
        <time>2025-01-28T18:11:47.990Z</time>
      </trkpt>
      <trkpt lat="48.80243" lon="-3.52547">
        <ele>42.62</ele>
        <time>2025-01-28T18:11:49.820Z</time>
      </trkpt>
      <trkpt lat="48.80249" lon="-3.5256">
        <ele>41.97</ele>
        <time>2025-01-28T18:11:51.653Z</time>
      </trkpt>
      <trkpt lat="48.80247" lon="-3.52575">
        <ele>41.31</ele>
        <time>2025-01-28T18:11:53.490Z</time>
      </trkpt>
      <trkpt lat="48.80242" lon="-3.52611">
        <ele>40.56</ele>
        <time>2025-01-28T18:11:55.335Z</time>
      </trkpt>
      <trkpt lat="48.80236" lon="-3.52646">
        <ele>39.81</ele>
        <time>2025-01-28T18:11:57.188Z</time>
      </trkpt>
      <trkpt lat="48.80243" lon="-3.52668">
        <ele>39.05</ele>
        <time>2025-01-28T18:11:59.046Z</time>
      </trkpt>
      <trkpt lat="48.80239" lon="-3.52683">
        <ele>38.35</ele>
        <time>2025-01-28T18:12:00.907Z</time>
      </trkpt>
      <trkpt lat="48.80221" lon="-3.52717">
        <ele>37.67</ele>
        <time>2025-01-28T18:12:02.778Z</time>
      </trkpt>
      <trkpt lat="48.80205" lon="-3.52753">
        <ele>36.91</ele>
        <time>2025-01-28T18:12:04.659Z</time>
      </trkpt>
      <trkpt lat="48.80189" lon="-3.5279">
        <ele>36.04</ele>
        <time>2025-01-28T18:12:06.549Z</time>
      </trkpt>
      <trkpt lat="48.80176" lon="-3.52821">
        <ele>35.14</ele>
        <time>2025-01-28T18:12:08.447Z</time>
      </trkpt>
      <trkpt lat="48.80163" lon="-3.52852">
        <ele>34.22</ele>
        <time>2025-01-28T18:12:10.353Z</time>
      </trkpt>
      <trkpt lat="48.80151" lon="-3.52882">
        <ele>33.32</ele>
        <time>2025-01-28T18:12:12.267Z</time>
      </trkpt>
      <trkpt lat="48.80134" lon="-3.52911">
        <ele>32.43</ele>
        <time>2025-01-28T18:12:14.190Z</time>
      </trkpt>
      <trkpt lat="48.80118" lon="-3.52939">
        <ele>31.5</ele>
        <time>2025-01-28T18:12:16.121Z</time>
      </trkpt>
      <trkpt lat="48.80102" lon="-3.52968">
        <ele>30.39</ele>
        <time>2025-01-28T18:12:18.060Z</time>
      </trkpt>
      <trkpt lat="48.80086" lon="-3.52996">
        <ele>29.25</ele>
        <time>2025-01-28T18:12:20.007Z</time>
      </trkpt>
      <trkpt lat="48.80075" lon="-3.53014">
        <ele>28.27</ele>
        <time>2025-01-28T18:12:21.960Z</time>
      </trkpt>
      <trkpt lat="48.80065" lon="-3.53032">
        <ele>27.35</ele>
        <time>2025-01-28T18:12:23.918Z</time>
      </trkpt>
      <trkpt lat="48.80045" lon="-3.5306">
        <ele>26.35</ele>
        <time>2025-01-28T18:12:25.885Z</time>
      </trkpt>
      <trkpt lat="48.80025" lon="-3.53088">
        <ele>25.4</ele>
        <time>2025-01-28T18:12:27.861Z</time>
      </trkpt>
      <trkpt lat="48.80005" lon="-3.53116">
        <ele>24.6</ele>
        <time>2025-01-28T18:12:29.846Z</time>
      </trkpt>
      <trkpt lat="48.79996" lon="-3.5312">
        <ele>24.03</ele>
        <time>2025-01-28T18:12:31.834Z</time>
      </trkpt>
      <trkpt lat="48.79985" lon="-3.53118">
        <ele>23.59</ele>
        <time>2025-01-28T18:12:33.826Z</time>
      </trkpt>
      <trkpt lat="48.79966" lon="-3.53133">
        <ele>23.25</ele>
        <time>2025-01-28T18:12:35.825Z</time>
      </trkpt>
      <trkpt lat="48.79949" lon="-3.53142">
        <ele>23.03</ele>
        <time>2025-01-28T18:12:37.830Z</time>
      </trkpt>
      <trkpt lat="48.79934" lon="-3.53161">
        <ele>22.85</ele>
        <time>2025-01-28T18:12:39.842Z</time>
      </trkpt>
      <trkpt lat="48.79917" lon="-3.5317">
        <ele>22.85</ele>
        <time>2025-01-28T18:12:41.860Z</time>
      </trkpt>
      <trkpt lat="48.799" lon="-3.5317">
        <ele>23.04</ele>
        <time>2025-01-28T18:12:43.884Z</time>
      </trkpt>
      <trkpt lat="48.79874" lon="-3.53168">
        <ele>23.43</ele>
        <time>2025-01-28T18:12:45.916Z</time>
      </trkpt>
      <trkpt lat="48.79848" lon="-3.53165">
        <ele>23.9</ele>
        <time>2025-01-28T18:12:47.957Z</time>
      </trkpt>
      <trkpt lat="48.79824" lon="-3.53151">
        <ele>24.56</ele>
        <time>2025-01-28T18:12:50.006Z</time>
      </trkpt>
      <trkpt lat="48.79801" lon="-3.53137">
        <ele>25.36</ele>
        <time>2025-01-28T18:12:52.064Z</time>
      </trkpt>
      <trkpt lat="48.79792" lon="-3.53137">
        <ele>26.17</ele>
        <time>2025-01-28T18:12:54.125Z</time>
      </trkpt>
      <trkpt lat="48.79775" lon="-3.53146">
        <ele>27.11</ele>
        <time>2025-01-28T18:12:56.192Z</time>
      </trkpt>
      <trkpt lat="48.79751" lon="-3.5315">
        <ele>28.17</ele>
        <time>2025-01-28T18:12:58.267Z</time>
      </trkpt>
      <trkpt lat="48.7973" lon="-3.53137">
        <ele>29.21</ele>
        <time>2025-01-28T18:13:00.349Z</time>
      </trkpt>
      <trkpt lat="48.79714" lon="-3.53143">
        <ele>30.29</ele>
        <time>2025-01-28T18:13:02.437Z</time>
      </trkpt>
      <trkpt lat="48.79694" lon="-3.5315">
        <ele>31.46</ele>
        <time>2025-01-28T18:13:04.532Z</time>
      </trkpt>
      <trkpt lat="48.79678" lon="-3.53161">
        <ele>32.67</ele>
        <time>2025-01-28T18:13:06.632Z</time>
      </trkpt>
      <trkpt lat="48.79663" lon="-3.53172">
        <ele>33.81</ele>
        <time>2025-01-28T18:13:08.738Z</time>
      </trkpt>
      <trkpt lat="48.79647" lon="-3.53188">
        <ele>34.93</ele>
        <time>2025-01-28T18:13:10.850Z</time>
      </trkpt>
      <trkpt lat="48.79631" lon="-3.53204">
        <ele>35.89</ele>
        <time>2025-01-28T18:13:12.969Z</time>
      </trkpt>
      <trkpt lat="48.79616" lon="-3.53215">
        <ele>36.78</ele>
        <time>2025-01-28T18:13:15.093Z</time>
      </trkpt>
      <trkpt lat="48.79603" lon="-3.53221">
        <ele>37.64</ele>
        <time>2025-01-28T18:13:17.222Z</time>
      </trkpt>
      <trkpt lat="48.79595" lon="-3.53225">
        <ele>38.42</ele>
        <time>2025-01-28T18:13:19.354Z</time>
      </trkpt>
      <trkpt lat="48.79578" lon="-3.53221">
        <ele>39.16</ele>
        <time>2025-01-28T18:13:21.492Z</time>
      </trkpt>
      <trkpt lat="48.79571" lon="-3.53221">
        <ele>39.8</ele>
        <time>2025-01-28T18:13:23.632Z</time>
      </trkpt>
      <trkpt lat="48.79571" lon="-3.53221">
        <ele>40.37</ele>
        <time>2025-01-28T18:13:25.772Z</time>
      </trkpt>
      <trkpt lat="48.7956" lon="-3.53234">
        <ele>40.88</ele>
        <time>2025-01-28T18:13:27.916Z</time>
      </trkpt>
      <trkpt lat="48.79533" lon="-3.53245">
        <ele>41.37</ele>
        <time>2025-01-28T18:13:30.070Z</time>
      </trkpt>
      <trkpt lat="48.79506" lon="-3.53257">
        <ele>41.87</ele>
        <time>2025-01-28T18:13:32.233Z</time>
      </trkpt>
      <trkpt lat="48.79479" lon="-3.53268">
        <ele>42.31</ele>
        <time>2025-01-28T18:13:34.405Z</time>
      </trkpt>
      <trkpt lat="48.79468" lon="-3.53268">
        <ele>42.65</ele>
        <time>2025-01-28T18:13:36.581Z</time>
      </trkpt>
      <trkpt lat="48.79457" lon="-3.53258">
        <ele>42.95</ele>
        <time>2025-01-28T18:13:38.761Z</time>
      </trkpt>
      <trkpt lat="48.79436" lon="-3.53227">
        <ele>43.24</ele>
        <time>2025-01-28T18:13:40.951Z</time>
      </trkpt>
      <trkpt lat="48.79415" lon="-3.53195">
        <ele>43.53</ele>
        <time>2025-01-28T18:13:43.151Z</time>
      </trkpt>
      <trkpt lat="48.79402" lon="-3.53183">
        <ele>43.85</ele>
        <time>2025-01-28T18:13:45.356Z</time>
      </trkpt>
      <trkpt lat="48.79375" lon="-3.53175">
        <ele>44.08</ele>
        <time>2025-01-28T18:13:47.571Z</time>
      </trkpt>
      <trkpt lat="48.79347" lon="-3.53167">
        <ele>44.36</ele>
        <time>2025-01-28T18:13:49.795Z</time>
      </trkpt>
      <trkpt lat="48.7932" lon="-3.53159">
        <ele>44.61</ele>
        <time>2025-01-28T18:13:52.028Z</time>
      </trkpt>
      <trkpt lat="48.79303" lon="-3.53158">
        <ele>44.84</ele>
        <time>2025-01-28T18:13:54.267Z</time>
      </trkpt>
      <trkpt lat="48.79286" lon="-3.53157">
        <ele>45.08</ele>
        <time>2025-01-28T18:13:56.511Z</time>
      </trkpt>
      <trkpt lat="48.79259" lon="-3.53164">
        <ele>45.33</ele>
        <time>2025-01-28T18:13:58.764Z</time>
      </trkpt>
      <trkpt lat="48.79233" lon="-3.53171">
        <ele>45.58</ele>
        <time>2025-01-28T18:14:01.026Z</time>
      </trkpt>
      <trkpt lat="48.79206" lon="-3.53178">
        <ele>45.91</ele>
        <time>2025-01-28T18:14:03.297Z</time>
      </trkpt>
      <trkpt lat="48.79181" lon="-3.53189">
        <ele>46.25</ele>
        <time>2025-01-28T18:14:05.577Z</time>
      </trkpt>
      <trkpt lat="48.79156" lon="-3.532">
        <ele>46.6</ele>
        <time>2025-01-28T18:14:07.866Z</time>
      </trkpt>
      <trkpt lat="48.7913" lon="-3.5321">
        <ele>46.87</ele>
        <time>2025-01-28T18:14:10.164Z</time>
      </trkpt>
      <trkpt lat="48.79105" lon="-3.53221">
        <ele>47.14</ele>
        <time>2025-01-28T18:14:12.471Z</time>
      </trkpt>
      <trkpt lat="48.79079" lon="-3.53232">
        <ele>47.39</ele>
        <time>2025-01-28T18:14:14.786Z</time>
      </trkpt>
      <trkpt lat="48.79054" lon="-3.53243">
        <ele>47.63</ele>
        <time>2025-01-28T18:14:17.110Z</time>
      </trkpt>
      <trkpt lat="48.79044" lon="-3.53242">
        <ele>47.86</ele>
        <time>2025-01-28T18:14:19.438Z</time>
      </trkpt>
      <trkpt lat="48.79054" lon="-3.53243">
        <ele>48.08</ele>
        <time>2025-01-28T18:14:21.769Z</time>
      </trkpt>
      <trkpt lat="48.79054" lon="-3.53243">
        <ele>47.63</ele>
        <time>2025-01-28T18:14:24.100Z</time>
      </trkpt>
      <trkpt lat="48.79048" lon="-3.53234">
        <ele>48.45</ele>
        <time>2025-01-28T18:14:26.434Z</time>
      </trkpt>
      <trkpt lat="48.79048" lon="-3.53223">
        <ele>48.61</ele>
        <time>2025-01-28T18:14:28.770Z</time>
      </trkpt>
      <trkpt lat="48.79051" lon="-3.53186">
        <ele>48.76</ele>
        <time>2025-01-28T18:14:31.115Z</time>
      </trkpt>
      <trkpt lat="48.79054" lon="-3.53148">
        <ele>48.87</ele>
        <time>2025-01-28T18:14:33.468Z</time>
      </trkpt>
      <trkpt lat="48.79057" lon="-3.5311">
        <ele>48.94</ele>
        <time>2025-01-28T18:14:35.829Z</time>
      </trkpt>
      <trkpt lat="48.79061" lon="-3.53073">
        <ele>49.04</ele>
        <time>2025-01-28T18:14:38.199Z</time>
      </trkpt>
      <trkpt lat="48.79064" lon="-3.53043">
        <ele>49.06</ele>
        <time>2025-01-28T18:14:40.575Z</time>
      </trkpt>
      <trkpt lat="48.79067" lon="-3.53013">
        <ele>48.97</ele>
        <time>2025-01-28T18:14:42.958Z</time>
      </trkpt>
      <trkpt lat="48.79069" lon="-3.52974">
        <ele>48.77</ele>
        <time>2025-01-28T18:14:45.350Z</time>
      </trkpt>
      <trkpt lat="48.79071" lon="-3.52936">
        <ele>48.48</ele>
        <time>2025-01-28T18:14:47.750Z</time>
      </trkpt>
      <trkpt lat="48.79069" lon="-3.52894">
        <ele>48.14</ele>
        <time>2025-01-28T18:14:50.159Z</time>
      </trkpt>
      <trkpt lat="48.79067" lon="-3.52853">
        <ele>47.71</ele>
        <time>2025-01-28T18:14:52.577Z</time>
      </trkpt>
      <trkpt lat="48.79065" lon="-3.52811">
        <ele>47.27</ele>
        <time>2025-01-28T18:14:55.005Z</time>
      </trkpt>
      <trkpt lat="48.79058" lon="-3.52765">
        <ele>46.81</ele>
        <time>2025-01-28T18:14:57.443Z</time>
      </trkpt>
      <trkpt lat="48.79052" lon="-3.52719">
        <ele>46.3</ele>
        <time>2025-01-28T18:14:59.891Z</time>
      </trkpt>
      <trkpt lat="48.79041" lon="-3.52695">
        <ele>45.77</ele>
        <time>2025-01-28T18:15:02.346Z</time>
      </trkpt>
      <trkpt lat="48.79033" lon="-3.52657">
        <ele>45.3</ele>
        <time>2025-01-28T18:15:04.810Z</time>
      </trkpt>
      <trkpt lat="48.79039" lon="-3.52628">
        <ele>44.88</ele>
        <time>2025-01-28T18:15:07.280Z</time>
      </trkpt>
      <trkpt lat="48.79045" lon="-3.52599">
        <ele>44.53</ele>
        <time>2025-01-28T18:15:09.757Z</time>
      </trkpt>
      <trkpt lat="48.79042" lon="-3.52572">
        <ele>44.16</ele>
        <time>2025-01-28T18:15:12.240Z</time>
      </trkpt>
      <trkpt lat="48.79039" lon="-3.52545">
        <ele>43.9</ele>
        <time>2025-01-28T18:15:14.729Z</time>
      </trkpt>
      <trkpt lat="48.7903" lon="-3.52511">
        <ele>43.72</ele>
        <time>2025-01-28T18:15:17.226Z</time>
      </trkpt>
      <trkpt lat="48.79026" lon="-3.52487">
        <ele>43.62</ele>
        <time>2025-01-28T18:15:19.729Z</time>
      </trkpt>
      <trkpt lat="48.79021" lon="-3.52486">
        <ele>43.58</ele>
        <time>2025-01-28T18:15:22.233Z</time>
      </trkpt>
      <trkpt lat="48.79015" lon="-3.52485">
        <ele>43.62</ele>
        <time>2025-01-28T18:15:24.739Z</time>
      </trkpt>
      <trkpt lat="48.79013" lon="-3.52487">
        <ele>43.72</ele>
        <time>2025-01-28T18:15:27.246Z</time>
      </trkpt>
      <trkpt lat="48.79003" lon="-3.52498">
        <ele>43.91</ele>
        <time>2025-01-28T18:15:29.757Z</time>
      </trkpt>
      <trkpt lat="48.78997" lon="-3.52513">
        <ele>44.12</ele>
        <time>2025-01-28T18:15:32.272Z</time>
      </trkpt>
      <trkpt lat="48.7899" lon="-3.5253">
        <ele>44.4</ele>
        <time>2025-01-28T18:15:34.792Z</time>
      </trkpt>
      <trkpt lat="48.78981" lon="-3.5253">
        <ele>44.72</ele>
        <time>2025-01-28T18:15:37.315Z</time>
      </trkpt>
      <trkpt lat="48.78966" lon="-3.52522">
        <ele>45.17</ele>
        <time>2025-01-28T18:15:39.843Z</time>
      </trkpt>
      <trkpt lat="48.78947" lon="-3.52502">
        <ele>45.67</ele>
        <time>2025-01-28T18:15:42.379Z</time>
      </trkpt>
      <trkpt lat="48.78932" lon="-3.52494">
        <ele>46.09</ele>
        <time>2025-01-28T18:15:44.920Z</time>
      </trkpt>
      <trkpt lat="48.78917" lon="-3.52485">
        <ele>46.46</ele>
        <time>2025-01-28T18:15:47.466Z</time>
      </trkpt>
      <trkpt lat="48.78889" lon="-3.52472">
        <ele>46.79</ele>
        <time>2025-01-28T18:15:50.022Z</time>
      </trkpt>
      <trkpt lat="48.78861" lon="-3.52459">
        <ele>47</ele>
        <time>2025-01-28T18:15:52.588Z</time>
      </trkpt>
      <trkpt lat="48.78852" lon="-3.52458">
        <ele>47.18</ele>
        <time>2025-01-28T18:15:55.157Z</time>
      </trkpt>
      <trkpt lat="48.78842" lon="-3.52457">
        <ele>47.27</ele>
        <time>2025-01-28T18:15:57.729Z</time>
      </trkpt>
      <trkpt lat="48.78842" lon="-3.52444">
        <ele>47.25</ele>
        <time>2025-01-28T18:16:00.304Z</time>
      </trkpt>
      <trkpt lat="48.7882" lon="-3.52441">
        <ele>47.22</ele>
        <time>2025-01-28T18:16:02.886Z</time>
      </trkpt>
      <trkpt lat="48.78799" lon="-3.52438">
        <ele>47.09</ele>
        <time>2025-01-28T18:16:05.475Z</time>
      </trkpt>
      <trkpt lat="48.78794" lon="-3.5244">
        <ele>46.9</ele>
        <time>2025-01-28T18:16:08.066Z</time>
      </trkpt>
      <trkpt lat="48.78794" lon="-3.52474">
        <ele>46.59</ele>
        <time>2025-01-28T18:16:10.665Z</time>
      </trkpt>
      <trkpt lat="48.7879" lon="-3.52502">
        <ele>46.27</ele>
        <time>2025-01-28T18:16:13.270Z</time>
      </trkpt>
      <trkpt lat="48.78789" lon="-3.52519">
        <ele>45.83</ele>
        <time>2025-01-28T18:16:15.879Z</time>
      </trkpt>
      <trkpt lat="48.78788" lon="-3.52525">
        <ele>45.29</ele>
        <time>2025-01-28T18:16:18.489Z</time>
      </trkpt>
      <trkpt lat="48.78786" lon="-3.52562">
        <ele>44.64</ele>
        <time>2025-01-28T18:16:21.107Z</time>
      </trkpt>
      <trkpt lat="48.78777" lon="-3.52582">
        <ele>43.87</ele>
        <time>2025-01-28T18:16:23.730Z</time>
      </trkpt>
      <trkpt lat="48.78771" lon="-3.52612">
        <ele>43.09</ele>
        <time>2025-01-28T18:16:26.360Z</time>
      </trkpt>
      <trkpt lat="48.78765" lon="-3.52616">
        <ele>42.2</ele>
        <time>2025-01-28T18:16:28.992Z</time>
      </trkpt>
      <trkpt lat="48.78738" lon="-3.52639">
        <ele>41.12</ele>
        <time>2025-01-28T18:16:31.635Z</time>
      </trkpt>
      <trkpt lat="48.7871" lon="-3.52661">
        <ele>39.94</ele>
        <time>2025-01-28T18:16:34.288Z</time>
      </trkpt>
      <trkpt lat="48.78683" lon="-3.52684">
        <ele>38.79</ele>
        <time>2025-01-28T18:16:36.952Z</time>
      </trkpt>
      <trkpt lat="48.78655" lon="-3.52706">
        <ele>37.61</ele>
        <time>2025-01-28T18:16:39.626Z</time>
      </trkpt>
      <trkpt lat="48.78637" lon="-3.52718">
        <ele>36.45</ele>
        <time>2025-01-28T18:16:42.307Z</time>
      </trkpt>
      <trkpt lat="48.78631" lon="-3.52721">
        <ele>35.36</ele>
        <time>2025-01-28T18:16:44.990Z</time>
      </trkpt>
      <trkpt lat="48.78603" lon="-3.52723">
        <ele>34.17</ele>
        <time>2025-01-28T18:16:47.682Z</time>
      </trkpt>
      <trkpt lat="48.78577" lon="-3.52737">
        <ele>32.98</ele>
        <time>2025-01-28T18:16:50.383Z</time>
      </trkpt>
      <trkpt lat="48.7855" lon="-3.52751">
        <ele>31.93</ele>
        <time>2025-01-28T18:16:53.094Z</time>
      </trkpt>
      <trkpt lat="48.78547" lon="-3.52749">
        <ele>31.13</ele>
        <time>2025-01-28T18:16:55.806Z</time>
      </trkpt>
      <trkpt lat="48.78533" lon="-3.52738">
        <ele>30.42</ele>
        <time>2025-01-28T18:16:58.523Z</time>
      </trkpt>
      <trkpt lat="48.78528" lon="-3.52727">
        <ele>29.86</ele>
        <time>2025-01-28T18:17:01.243Z</time>
      </trkpt>
      <trkpt lat="48.78525" lon="-3.52709">
        <ele>29.42</ele>
        <time>2025-01-28T18:17:03.967Z</time>
      </trkpt>
      <trkpt lat="48.78521" lon="-3.52662">
        <ele>29.17</ele>
        <time>2025-01-28T18:17:06.702Z</time>
      </trkpt>
      <trkpt lat="48.78521" lon="-3.5266">
        <ele>28.9</ele>
        <time>2025-01-28T18:17:09.437Z</time>
      </trkpt>
      <trkpt lat="48.78497" lon="-3.52656">
        <ele>28.73</ele>
        <time>2025-01-28T18:17:12.180Z</time>
      </trkpt>
      <trkpt lat="48.78472" lon="-3.52649">
        <ele>28.58</ele>
        <time>2025-01-28T18:17:14.932Z</time>
      </trkpt>
      <trkpt lat="48.78462" lon="-3.52626">
        <ele>28.58</ele>
        <time>2025-01-28T18:17:17.690Z</time>
      </trkpt>
      <trkpt lat="48.78456" lon="-3.52595">
        <ele>28.67</ele>
        <time>2025-01-28T18:17:20.455Z</time>
      </trkpt>
      <trkpt lat="48.78446" lon="-3.52555">
        <ele>28.94</ele>
        <time>2025-01-28T18:17:23.230Z</time>
      </trkpt>
      <trkpt lat="48.78437" lon="-3.52523">
        <ele>29.28</ele>
        <time>2025-01-28T18:17:26.012Z</time>
      </trkpt>
      <trkpt lat="48.78428" lon="-3.52482">
        <ele>29.69</ele>
        <time>2025-01-28T18:17:28.804Z</time>
      </trkpt>
      <trkpt lat="48.78416" lon="-3.52437">
        <ele>30.34</ele>
        <time>2025-01-28T18:17:31.606Z</time>
      </trkpt>
      <trkpt lat="48.78416" lon="-3.52436">
        <ele>30.98</ele>
        <time>2025-01-28T18:17:34.409Z</time>
      </trkpt>
      <trkpt lat="48.78403" lon="-3.52397">
        <ele>31.77</ele>
        <time>2025-01-28T18:17:37.221Z</time>
      </trkpt>
      <trkpt lat="48.78398" lon="-3.52377">
        <ele>32.59</ele>
        <time>2025-01-28T18:17:40.038Z</time>
      </trkpt>
      <trkpt lat="48.78386" lon="-3.52349">
        <ele>33.48</ele>
        <time>2025-01-28T18:17:42.862Z</time>
      </trkpt>
      <trkpt lat="48.78376" lon="-3.52313">
        <ele>34.43</ele>
        <time>2025-01-28T18:17:45.695Z</time>
      </trkpt>
      <trkpt lat="48.78382" lon="-3.52293">
        <ele>35.51</ele>
        <time>2025-01-28T18:17:48.533Z</time>
      </trkpt>
      <trkpt lat="48.78399" lon="-3.52265">
        <ele>36.75</ele>
        <time>2025-01-28T18:17:51.379Z</time>
      </trkpt>
      <trkpt lat="48.78412" lon="-3.52235">
        <ele>37.94</ele>
        <time>2025-01-28T18:17:54.233Z</time>
      </trkpt>
      <trkpt lat="48.78423" lon="-3.52213">
        <ele>39.07</ele>
        <time>2025-01-28T18:17:57.093Z</time>
      </trkpt>
      <trkpt lat="48.78436" lon="-3.52188">
        <ele>40.12</ele>
        <time>2025-01-28T18:17:59.960Z</time>
      </trkpt>
      <trkpt lat="48.78446" lon="-3.52165">
        <ele>41.12</ele>
        <time>2025-01-28T18:18:02.833Z</time>
      </trkpt>
      <trkpt lat="48.78451" lon="-3.52149">
        <ele>42.09</ele>
        <time>2025-01-28T18:18:05.710Z</time>
      </trkpt>
      <trkpt lat="48.78458" lon="-3.52143">
        <ele>42.97</ele>
        <time>2025-01-28T18:18:08.590Z</time>
      </trkpt>
      <trkpt lat="48.78462" lon="-3.52134">
        <ele>43.78</ele>
        <time>2025-01-28T18:18:11.472Z</time>
      </trkpt>
      <trkpt lat="48.78463" lon="-3.52118">
        <ele>44.49</ele>
        <time>2025-01-28T18:18:14.358Z</time>
      </trkpt>
      <trkpt lat="48.78462" lon="-3.52096">
        <ele>45.09</ele>
        <time>2025-01-28T18:18:17.249Z</time>
      </trkpt>
      <trkpt lat="48.78461" lon="-3.52056">
        <ele>45.66</ele>
        <time>2025-01-28T18:18:20.149Z</time>
      </trkpt>
      <trkpt lat="48.78457" lon="-3.52019">
        <ele>46.06</ele>
        <time>2025-01-28T18:18:23.057Z</time>
      </trkpt>
      <trkpt lat="48.78454" lon="-3.51972">
        <ele>46.28</ele>
        <time>2025-01-28T18:18:25.975Z</time>
      </trkpt>
      <trkpt lat="48.7845" lon="-3.51925">
        <ele>46.36</ele>
        <time>2025-01-28T18:18:28.904Z</time>
      </trkpt>
      <trkpt lat="48.78448" lon="-3.51901">
        <ele>46.39</ele>
        <time>2025-01-28T18:18:31.838Z</time>
      </trkpt>
      <trkpt lat="48.78422" lon="-3.51902">
        <ele>46.15</ele>
        <time>2025-01-28T18:18:34.781Z</time>
      </trkpt>
      <trkpt lat="48.78395" lon="-3.51899">
        <ele>45.83</ele>
        <time>2025-01-28T18:18:37.733Z</time>
      </trkpt>
      <trkpt lat="48.78372" lon="-3.51893">
        <ele>45.38</ele>
        <time>2025-01-28T18:18:40.692Z</time>
      </trkpt>
      <trkpt lat="48.78354" lon="-3.51881">
        <ele>44.74</ele>
        <time>2025-01-28T18:18:43.658Z</time>
      </trkpt>
      <trkpt lat="48.78338" lon="-3.51859">
        <ele>44.01</ele>
        <time>2025-01-28T18:18:46.631Z</time>
      </trkpt>
      <trkpt lat="48.78327" lon="-3.51837">
        <ele>43.3</ele>
        <time>2025-01-28T18:18:49.610Z</time>
      </trkpt>
      <trkpt lat="48.78305" lon="-3.51821">
        <ele>42.45</ele>
        <time>2025-01-28T18:18:52.598Z</time>
      </trkpt>
      <trkpt lat="48.78276" lon="-3.51802">
        <ele>41.56</ele>
        <time>2025-01-28T18:18:55.596Z</time>
      </trkpt>
      <trkpt lat="48.78264" lon="-3.51795">
        <ele>40.72</ele>
        <time>2025-01-28T18:18:58.598Z</time>
      </trkpt>
      <trkpt lat="48.78264" lon="-3.51747">
        <ele>40.07</ele>
        <time>2025-01-28T18:19:01.611Z</time>
      </trkpt>
      <trkpt lat="48.78264" lon="-3.517">
        <ele>39.38</ele>
        <time>2025-01-28T18:19:04.634Z</time>
      </trkpt>
      <trkpt lat="48.78264" lon="-3.5168">
        <ele>38.67</ele>
        <time>2025-01-28T18:19:07.662Z</time>
      </trkpt>
      <trkpt lat="48.78237" lon="-3.51654">
        <ele>37.85</ele>
        <time>2025-01-28T18:19:10.700Z</time>
      </trkpt>
      <trkpt lat="48.78237" lon="-3.51654">
        <ele>37.21</ele>
        <time>2025-01-28T18:19:13.738Z</time>
      </trkpt>
      <trkpt lat="48.78212" lon="-3.51626">
        <ele>36.57</ele>
        <time>2025-01-28T18:19:16.787Z</time>
      </trkpt>
      <trkpt lat="48.78198" lon="-3.5163">
        <ele>36.03</ele>
        <time>2025-01-28T18:19:19.840Z</time>
      </trkpt>
      <trkpt lat="48.78177" lon="-3.51666">
        <ele>35.47</ele>
        <time>2025-01-28T18:19:22.904Z</time>
      </trkpt>
      <trkpt lat="48.78175" lon="-3.51669">
        <ele>35.16</ele>
        <time>2025-01-28T18:19:25.969Z</time>
      </trkpt>
      <trkpt lat="48.78163" lon="-3.51687">
        <ele>34.93</ele>
        <time>2025-01-28T18:19:29.039Z</time>
      </trkpt>
      <trkpt lat="48.78145" lon="-3.51674">
        <ele>34.88</ele>
        <time>2025-01-28T18:19:32.116Z</time>
      </trkpt>
      <trkpt lat="48.78124" lon="-3.5168">
        <ele>34.97</ele>
        <time>2025-01-28T18:19:35.200Z</time>
      </trkpt>
      <trkpt lat="48.78102" lon="-3.51646">
        <ele>35.25</ele>
        <time>2025-01-28T18:19:38.295Z</time>
      </trkpt>
      <trkpt lat="48.78098" lon="-3.51641">
        <ele>35.53</ele>
        <time>2025-01-28T18:19:41.392Z</time>
      </trkpt>
      <trkpt lat="48.78105" lon="-3.5161">
        <ele>35.96</ele>
        <time>2025-01-28T18:19:44.496Z</time>
      </trkpt>
      <trkpt lat="48.78129" lon="-3.51615">
        <ele>36.39</ele>
        <time>2025-01-28T18:19:47.608Z</time>
      </trkpt>
      <trkpt lat="48.78157" lon="-3.51615">
        <ele>36.96</ele>
        <time>2025-01-28T18:19:50.729Z</time>
      </trkpt>
      <trkpt lat="48.78165" lon="-3.51591">
        <ele>37.72</ele>
        <time>2025-01-28T18:19:53.856Z</time>
      </trkpt>
      <trkpt lat="48.78154" lon="-3.51565">
        <ele>38.51</ele>
        <time>2025-01-28T18:19:56.990Z</time>
      </trkpt>
      <trkpt lat="48.78142" lon="-3.51533">
        <ele>39.44</ele>
        <time>2025-01-28T18:20:00.132Z</time>
      </trkpt>
      <trkpt lat="48.78137" lon="-3.51493">
        <ele>40.5</ele>
        <time>2025-01-28T18:20:03.283Z</time>
      </trkpt>
      <trkpt lat="48.78123" lon="-3.51464">
        <ele>41.51</ele>
        <time>2025-01-28T18:20:06.442Z</time>
      </trkpt>
      <trkpt lat="48.78119" lon="-3.51431">
        <ele>42.51</ele>
        <time>2025-01-28T18:20:09.609Z</time>
      </trkpt>
      <trkpt lat="48.78103" lon="-3.51389">
        <ele>43.55</ele>
        <time>2025-01-28T18:20:12.786Z</time>
      </trkpt>
      <trkpt lat="48.781" lon="-3.51383">
        <ele>44.5</ele>
        <time>2025-01-28T18:20:15.965Z</time>
      </trkpt>
      <trkpt lat="48.78095" lon="-3.51336">
        <ele>45.55</ele>
        <time>2025-01-28T18:20:19.154Z</time>
      </trkpt>
      <trkpt lat="48.78095" lon="-3.51333">
        <ele>46.39</ele>
        <time>2025-01-28T18:20:22.344Z</time>
      </trkpt>
      <trkpt lat="48.78081" lon="-3.5129">
        <ele>47.26</ele>
        <time>2025-01-28T18:20:25.545Z</time>
      </trkpt>
      <trkpt lat="48.7808" lon="-3.51287">
        <ele>47.95</ele>
        <time>2025-01-28T18:20:28.746Z</time>
      </trkpt>
      <trkpt lat="48.78071" lon="-3.51242">
        <ele>48.58</ele>
        <time>2025-01-28T18:20:31.958Z</time>
      </trkpt>
      <trkpt lat="48.78069" lon="-3.51235">
        <ele>49.1</ele>
        <time>2025-01-28T18:20:35.171Z</time>
      </trkpt>
      <trkpt lat="48.78081" lon="-3.5123">
        <ele>49.53</ele>
        <time>2025-01-28T18:20:38.388Z</time>
      </trkpt>
      <trkpt lat="48.78095" lon="-3.51239">
        <ele>49.87</ele>
        <time>2025-01-28T18:20:41.610Z</time>
      </trkpt>
      <trkpt lat="48.78113" lon="-3.51226">
        <ele>50.17</ele>
        <time>2025-01-28T18:20:44.839Z</time>
      </trkpt>
      <trkpt lat="48.78124" lon="-3.51233">
        <ele>50.39</ele>
        <time>2025-01-28T18:20:48.072Z</time>
      </trkpt>
      <trkpt lat="48.78145" lon="-3.5123">
        <ele>50.51</ele>
        <time>2025-01-28T18:20:51.312Z</time>
      </trkpt>
      <trkpt lat="48.78168" lon="-3.51242">
        <ele>50.51</ele>
        <time>2025-01-28T18:20:54.560Z</time>
      </trkpt>
      <trkpt lat="48.78194" lon="-3.51245">
        <ele>50.39</ele>
        <time>2025-01-28T18:20:57.817Z</time>
      </trkpt>
      <trkpt lat="48.78208" lon="-3.51255">
        <ele>50.2</ele>
        <time>2025-01-28T18:21:01.079Z</time>
      </trkpt>
      <trkpt lat="48.78223" lon="-3.51213">
        <ele>50.01</ele>
        <time>2025-01-28T18:21:04.351Z</time>
      </trkpt>
      <trkpt lat="48.78226" lon="-3.51206">
        <ele>49.8</ele>
        <time>2025-01-28T18:21:07.625Z</time>
      </trkpt>
      <trkpt lat="48.78243" lon="-3.51206">
        <ele>49.53</ele>
        <time>2025-01-28T18:21:10.905Z</time>
      </trkpt>
      <trkpt lat="48.7825" lon="-3.51198">
        <ele>49.27</ele>
        <time>2025-01-28T18:21:14.188Z</time>
      </trkpt>
      <trkpt lat="48.78253" lon="-3.51185">
        <ele>49.06</ele>
        <time>2025-01-28T18:21:17.474Z</time>
      </trkpt>
      <trkpt lat="48.78254" lon="-3.51147">
        <ele>48.87</ele>
        <time>2025-01-28T18:21:20.768Z</time>
      </trkpt>
      <trkpt lat="48.7826" lon="-3.51123">
        <ele>48.68</ele>
        <time>2025-01-28T18:21:24.068Z</time>
      </trkpt>
      <trkpt lat="48.78266" lon="-3.51104">
        <ele>48.53</ele>
        <time>2025-01-28T18:21:27.372Z</time>
      </trkpt>
      <trkpt lat="48.78265" lon="-3.51076">
        <ele>48.45</ele>
        <time>2025-01-28T18:21:30.683Z</time>
      </trkpt>
      <trkpt lat="48.78257" lon="-3.51063">
        <ele>48.36</ele>
        <time>2025-01-28T18:21:33.998Z</time>
      </trkpt>
      <trkpt lat="48.78254" lon="-3.51038">
        <ele>48.29</ele>
        <time>2025-01-28T18:21:37.318Z</time>
      </trkpt>
      <trkpt lat="48.78251" lon="-3.51016">
        <ele>48.31</ele>
        <time>2025-01-28T18:21:40.643Z</time>
      </trkpt>
      <trkpt lat="48.78251" lon="-3.51">
        <ele>48.42</ele>
        <time>2025-01-28T18:21:43.972Z</time>
      </trkpt>
      <trkpt lat="48.78259" lon="-3.50993">
        <ele>48.6</ele>
        <time>2025-01-28T18:21:47.304Z</time>
      </trkpt>
      <trkpt lat="48.78258" lon="-3.5098">
        <ele>48.88</ele>
        <time>2025-01-28T18:21:50.639Z</time>
      </trkpt>
      <trkpt lat="48.7825" lon="-3.50976">
        <ele>49.26</ele>
        <time>2025-01-28T18:21:53.977Z</time>
      </trkpt>
      <trkpt lat="48.7824" lon="-3.50971">
        <ele>49.72</ele>
        <time>2025-01-28T18:21:57.318Z</time>
      </trkpt>
      <trkpt lat="48.78232" lon="-3.50964">
        <ele>50.29</ele>
        <time>2025-01-28T18:22:00.662Z</time>
      </trkpt>
      <trkpt lat="48.78226" lon="-3.5094">
        <ele>51.02</ele>
        <time>2025-01-28T18:22:04.012Z</time>
      </trkpt>
      <trkpt lat="48.78223" lon="-3.50923">
        <ele>51.9</ele>
        <time>2025-01-28T18:22:07.366Z</time>
      </trkpt>
      <trkpt lat="48.78225" lon="-3.50904">
        <ele>52.8</ele>
        <time>2025-01-28T18:22:10.724Z</time>
      </trkpt>
      <trkpt lat="48.78234" lon="-3.50858">
        <ele>53.91</ele>
        <time>2025-01-28T18:22:14.093Z</time>
      </trkpt>
      <trkpt lat="48.78237" lon="-3.50845">
        <ele>54.94</ele>
        <time>2025-01-28T18:22:17.464Z</time>
      </trkpt>
      <trkpt lat="48.78242" lon="-3.50837">
        <ele>55.98</ele>
        <time>2025-01-28T18:22:20.838Z</time>
      </trkpt>
      <trkpt lat="48.78252" lon="-3.50801">
        <ele>57.17</ele>
        <time>2025-01-28T18:22:24.221Z</time>
      </trkpt>
      <trkpt lat="48.78273" lon="-3.50765">
        <ele>58.23</ele>
        <time>2025-01-28T18:22:27.614Z</time>
      </trkpt>
      <trkpt lat="48.78276" lon="-3.50759">
        <ele>59.28</ele>
        <time>2025-01-28T18:22:31.009Z</time>
      </trkpt>
      <trkpt lat="48.78296" lon="-3.50739">
        <ele>60.35</ele>
        <time>2025-01-28T18:22:34.412Z</time>
      </trkpt>
      <trkpt lat="48.78321" lon="-3.50711">
        <ele>61.46</ele>
        <time>2025-01-28T18:22:37.825Z</time>
      </trkpt>
      <trkpt lat="48.78322" lon="-3.50709">
        <ele>62.44</ele>
        <time>2025-01-28T18:22:41.239Z</time>
      </trkpt>
      <trkpt lat="48.78338" lon="-3.50696">
        <ele>63.46</ele>
        <time>2025-01-28T18:22:44.659Z</time>
      </trkpt>
      <trkpt lat="48.7834" lon="-3.50686">
        <ele>64.38</ele>
        <time>2025-01-28T18:22:48.081Z</time>
      </trkpt>
      <trkpt lat="48.78345" lon="-3.5067">
        <ele>65.27</ele>
        <time>2025-01-28T18:22:51.507Z</time>
      </trkpt>
      <trkpt lat="48.78364" lon="-3.50645">
        <ele>66.11</ele>
        <time>2025-01-28T18:22:54.942Z</time>
      </trkpt>
      <trkpt lat="48.78382" lon="-3.5063">
        <ele>66.86</ele>
        <time>2025-01-28T18:22:58.384Z</time>
      </trkpt>
      <trkpt lat="48.78403" lon="-3.50627">
        <ele>67.54</ele>
        <time>2025-01-28T18:23:01.833Z</time>
      </trkpt>
      <trkpt lat="48.78433" lon="-3.50638">
        <ele>68.2</ele>
        <time>2025-01-28T18:23:05.292Z</time>
      </trkpt>
      <trkpt lat="48.7846" lon="-3.50663">
        <ele>68.65</ele>
        <time>2025-01-28T18:23:08.761Z</time>
      </trkpt>
      <trkpt lat="48.78472" lon="-3.50674">
        <ele>69.02</ele>
        <time>2025-01-28T18:23:12.235Z</time>
      </trkpt>
      <trkpt lat="48.78482" lon="-3.50719">
        <ele>69.31</ele>
        <time>2025-01-28T18:23:15.719Z</time>
      </trkpt>
      <trkpt lat="48.7849" lon="-3.50751">
        <ele>69.54</ele>
        <time>2025-01-28T18:23:19.211Z</time>
      </trkpt>
      <trkpt lat="48.78499" lon="-3.50797">
        <ele>69.75</ele>
        <time>2025-01-28T18:23:22.713Z</time>
      </trkpt>
      <trkpt lat="48.78508" lon="-3.50842">
        <ele>69.9</ele>
        <time>2025-01-28T18:23:26.226Z</time>
      </trkpt>
      <trkpt lat="48.78509" lon="-3.5085">
        <ele>69.75</ele>
        <time>2025-01-28T18:23:29.741Z</time>
      </trkpt>
      <trkpt lat="48.78517" lon="-3.50896">
        <ele>69.42</ele>
        <time>2025-01-28T18:23:33.266Z</time>
      </trkpt>
      <trkpt lat="48.78524" lon="-3.50943">
        <ele>68.91</ele>
        <time>2025-01-28T18:23:36.802Z</time>
      </trkpt>
      <trkpt lat="48.78525" lon="-3.50949">
        <ele>68.49</ele>
        <time>2025-01-28T18:23:40.339Z</time>
      </trkpt>
      <trkpt lat="48.78528" lon="-3.50997">
        <ele>67.91</ele>
        <time>2025-01-28T18:23:43.887Z</time>
      </trkpt>
      <trkpt lat="48.78531" lon="-3.5104">
        <ele>67.3</ele>
        <time>2025-01-28T18:23:47.444Z</time>
      </trkpt>
      <trkpt lat="48.78531" lon="-3.51063">
        <ele>66.71</ele>
        <time>2025-01-28T18:23:51.006Z</time>
      </trkpt>
      <trkpt lat="48.78527" lon="-3.511">
        <ele>65.99</ele>
        <time>2025-01-28T18:23:54.577Z</time>
      </trkpt>
      <trkpt lat="48.78523" lon="-3.51147">
        <ele>65.19</ele>
        <time>2025-01-28T18:23:58.158Z</time>
      </trkpt>
      <trkpt lat="48.78521" lon="-3.51166">
        <ele>64.56</ele>
        <time>2025-01-28T18:24:01.743Z</time>
      </trkpt>
      <trkpt lat="48.78516" lon="-3.51213">
        <ele>63.9</ele>
        <time>2025-01-28T18:24:05.339Z</time>
      </trkpt>
      <trkpt lat="48.78512" lon="-3.51252">
        <ele>63.2</ele>
        <time>2025-01-28T18:24:08.944Z</time>
      </trkpt>
      <trkpt lat="48.78509" lon="-3.51292">
        <ele>62.65</ele>
        <time>2025-01-28T18:24:12.557Z</time>
      </trkpt>
      <trkpt lat="48.78493" lon="-3.51313">
        <ele>62.06</ele>
        <time>2025-01-28T18:24:16.178Z</time>
      </trkpt>
      <trkpt lat="48.78484" lon="-3.51359">
        <ele>61.66</ele>
        <time>2025-01-28T18:24:19.809Z</time>
      </trkpt>
      <trkpt lat="48.78483" lon="-3.51363">
        <ele>61</ele>
        <time>2025-01-28T18:24:23.441Z</time>
      </trkpt>
      <trkpt lat="48.78472" lon="-3.51403">
        <ele>60.4</ele>
        <time>2025-01-28T18:24:27.083Z</time>
      </trkpt>
      <trkpt lat="48.78453" lon="-3.51372">
        <ele>59.41</ele>
        <time>2025-01-28T18:24:30.734Z</time>
      </trkpt>
      <trkpt lat="48.78435" lon="-3.51369">
        <ele>58.48</ele>
        <time>2025-01-28T18:24:34.391Z</time>
      </trkpt>
      <trkpt lat="48.78422" lon="-3.51377">
        <ele>57.59</ele>
        <time>2025-01-28T18:24:38.053Z</time>
      </trkpt>
      <trkpt lat="48.78414" lon="-3.51392">
        <ele>56.7</ele>
        <time>2025-01-28T18:24:41.719Z</time>
      </trkpt>
      <trkpt lat="48.78401" lon="-3.5142">
        <ele>55.81</ele>
        <time>2025-01-28T18:24:45.392Z</time>
      </trkpt>
      <trkpt lat="48.78374" lon="-3.51442">
        <ele>54.79</ele>
        <time>2025-01-28T18:24:49.076Z</time>
      </trkpt>
      <trkpt lat="48.7837" lon="-3.51446">
        <ele>53.95</ele>
        <time>2025-01-28T18:24:52.761Z</time>
      </trkpt>
      <trkpt lat="48.78353" lon="-3.51446">
        <ele>53.03</ele>
        <time>2025-01-28T18:24:56.452Z</time>
      </trkpt>
      <trkpt lat="48.7834" lon="-3.51436">
        <ele>52.18</ele>
        <time>2025-01-28T18:25:00.147Z</time>
      </trkpt>
      <trkpt lat="48.78328" lon="-3.51425">
        <ele>51.36</ele>
        <time>2025-01-28T18:25:03.847Z</time>
      </trkpt>
      <trkpt lat="48.78318" lon="-3.51431">
        <ele>50.73</ele>
        <time>2025-01-28T18:25:07.551Z</time>
      </trkpt>
      <trkpt lat="48.78303" lon="-3.5144">
        <ele>50.19</ele>
        <time>2025-01-28T18:25:11.260Z</time>
      </trkpt>
      <trkpt lat="48.78298" lon="-3.51454">
        <ele>49.9</ele>
        <time>2025-01-28T18:25:14.973Z</time>
      </trkpt>
      <trkpt lat="48.78292" lon="-3.51476">
        <ele>49.77</ele>
        <time>2025-01-28T18:25:18.691Z</time>
      </trkpt>
      <trkpt lat="48.78287" lon="-3.51523">
        <ele>49.84</ele>
        <time>2025-01-28T18:25:22.420Z</time>
      </trkpt>
      <trkpt lat="48.78284" lon="-3.51552">
        <ele>50.08</ele>
        <time>2025-01-28T18:25:26.155Z</time>
      </trkpt>
      <trkpt lat="48.78307" lon="-3.51539">
        <ele>50.9</ele>
        <time>2025-01-28T18:25:29.899Z</time>
      </trkpt>
      <trkpt lat="48.78322" lon="-3.51501">
        <ele>51.51</ele>
        <time>2025-01-28T18:25:33.652Z</time>
      </trkpt>
      <trkpt lat="48.78353" lon="-3.51491">
        <ele>52.63</ele>
        <time>2025-01-28T18:25:37.416Z</time>
      </trkpt>
      <trkpt lat="48.7838" lon="-3.51482">
        <ele>53.41</ele>
        <time>2025-01-28T18:25:41.189Z</time>
      </trkpt>
      <trkpt lat="48.78394" lon="-3.51524">
        <ele>54.01</ele>
        <time>2025-01-28T18:25:44.973Z</time>
      </trkpt>
      <trkpt lat="48.78398" lon="-3.51537">
        <ele>54.58</ele>
        <time>2025-01-28T18:25:48.760Z</time>
      </trkpt>
      <trkpt lat="48.78399" lon="-3.51584">
        <ele>54.91</ele>
        <time>2025-01-28T18:25:52.557Z</time>
      </trkpt>
      <trkpt lat="48.78399" lon="-3.51591">
        <ele>55.38</ele>
        <time>2025-01-28T18:25:56.356Z</time>
      </trkpt>
      <trkpt lat="48.78426" lon="-3.51614">
        <ele>55.86</ele>
        <time>2025-01-28T18:26:00.165Z</time>
      </trkpt>
      <trkpt lat="48.78427" lon="-3.51615">
        <ele>56.27</ele>
        <time>2025-01-28T18:26:03.975Z</time>
      </trkpt>
      <trkpt lat="48.78458" lon="-3.51602">
        <ele>56.82</ele>
        <time>2025-01-28T18:26:07.795Z</time>
      </trkpt>
      <trkpt lat="48.78488" lon="-3.5159">
        <ele>57.23</ele>
        <time>2025-01-28T18:26:11.626Z</time>
      </trkpt>
      <trkpt lat="48.78518" lon="-3.51577">
        <ele>57.51</ele>
        <time>2025-01-28T18:26:15.467Z</time>
      </trkpt>
      <trkpt lat="48.78519" lon="-3.51576">
        <ele>57.7</ele>
        <time>2025-01-28T18:26:19.308Z</time>
      </trkpt>
      <trkpt lat="48.78533" lon="-3.51602">
        <ele>57.61</ele>
        <time>2025-01-28T18:26:23.157Z</time>
      </trkpt>
      <trkpt lat="48.78525" lon="-3.51648">
        <ele>57.51</ele>
        <time>2025-01-28T18:26:27.016Z</time>
      </trkpt>
      <trkpt lat="48.78523" lon="-3.51663">
        <ele>57.54</ele>
        <time>2025-01-28T18:26:30.879Z</time>
      </trkpt>
      <trkpt lat="48.78553" lon="-3.5165">
        <ele>57.72</ele>
        <time>2025-01-28T18:26:34.752Z</time>
      </trkpt>
      <trkpt lat="48.78555" lon="-3.51649">
        <ele>57.85</ele>
        <time>2025-01-28T18:26:38.626Z</time>
      </trkpt>
      <trkpt lat="48.78574" lon="-3.51646">
        <ele>58</ele>
        <time>2025-01-28T18:26:42.506Z</time>
      </trkpt>
      <trkpt lat="48.78585" lon="-3.51624">
        <ele>58.23</ele>
        <time>2025-01-28T18:26:46.392Z</time>
      </trkpt>
      <trkpt lat="48.78585" lon="-3.51598">
        <ele>58.51</ele>
        <time>2025-01-28T18:26:50.284Z</time>
      </trkpt>
      <trkpt lat="48.78582" lon="-3.5155">
        <ele>58.95</ele>
        <time>2025-01-28T18:26:54.186Z</time>
      </trkpt>
      <trkpt lat="48.78581" lon="-3.51519">
        <ele>59.31</ele>
        <time>2025-01-28T18:26:58.095Z</time>
      </trkpt>
      <trkpt lat="48.78586" lon="-3.51472">
        <ele>59.5</ele>
        <time>2025-01-28T18:27:02.015Z</time>
      </trkpt>
      <trkpt lat="48.78587" lon="-3.51464">
        <ele>59.76</ele>
        <time>2025-01-28T18:27:05.937Z</time>
      </trkpt>
      <trkpt lat="48.78582" lon="-3.51427">
        <ele>60.08</ele>
        <time>2025-01-28T18:27:09.867Z</time>
      </trkpt>
      <trkpt lat="48.7856" lon="-3.5141">
        <ele>60.59</ele>
        <time>2025-01-28T18:27:13.805Z</time>
      </trkpt>
      <trkpt lat="48.78534" lon="-3.51412">
        <ele>61.16</ele>
        <time>2025-01-28T18:27:17.752Z</time>
      </trkpt>
      <trkpt lat="48.78535" lon="-3.51388">
        <ele>61.35</ele>
        <time>2025-01-28T18:27:21.704Z</time>
      </trkpt>
      <trkpt lat="48.78546" lon="-3.51382">
        <ele>61.56</ele>
        <time>2025-01-28T18:27:25.660Z</time>
      </trkpt>
      <trkpt lat="48.78544" lon="-3.5135">
        <ele>61.8</ele>
        <time>2025-01-28T18:27:29.623Z</time>
      </trkpt>
      <trkpt lat="48.78543" lon="-3.51314">
        <ele>62.02</ele>
        <time>2025-01-28T18:27:33.594Z</time>
      </trkpt>
      <trkpt lat="48.78543" lon="-3.5127">
        <ele>62.31</ele>
        <time>2025-01-28T18:27:37.575Z</time>
      </trkpt>
      <trkpt lat="48.78552" lon="-3.5124">
        <ele>62.72</ele>
        <time>2025-01-28T18:27:41.563Z</time>
      </trkpt>
      <trkpt lat="48.78568" lon="-3.51199">
        <ele>63.23</ele>
        <time>2025-01-28T18:27:45.562Z</time>
      </trkpt>
      <trkpt lat="48.78574" lon="-3.51185">
        <ele>63.74</ele>
        <time>2025-01-28T18:27:49.564Z</time>
      </trkpt>
      <trkpt lat="48.78599" lon="-3.51179">
        <ele>64.25</ele>
        <time>2025-01-28T18:27:53.575Z</time>
      </trkpt>
      <trkpt lat="48.78623" lon="-3.51174">
        <ele>64.67</ele>
        <time>2025-01-28T18:27:57.594Z</time>
      </trkpt>
      <trkpt lat="48.78627" lon="-3.51142">
        <ele>65.3</ele>
        <time>2025-01-28T18:28:01.620Z</time>
      </trkpt>
      <trkpt lat="48.78639" lon="-3.51098">
        <ele>65.79</ele>
        <time>2025-01-28T18:28:05.657Z</time>
      </trkpt>
      <trkpt lat="48.78631" lon="-3.51079">
        <ele>66.23</ele>
        <time>2025-01-28T18:28:09.699Z</time>
      </trkpt>
      <trkpt lat="48.78643" lon="-3.51048">
        <ele>66.48</ele>
        <time>2025-01-28T18:28:13.749Z</time>
      </trkpt>
      <trkpt lat="48.78642" lon="-3.51027">
        <ele>66.81</ele>
        <time>2025-01-28T18:28:17.803Z</time>
      </trkpt>
      <trkpt lat="48.78639" lon="-3.51009">
        <ele>67.14</ele>
        <time>2025-01-28T18:28:21.861Z</time>
      </trkpt>
      <trkpt lat="48.78651" lon="-3.50985">
        <ele>67.36</ele>
        <time>2025-01-28T18:28:25.926Z</time>
      </trkpt>
      <trkpt lat="48.7866" lon="-3.50958">
        <ele>67.46</ele>
        <time>2025-01-28T18:28:29.998Z</time>
      </trkpt>
      <trkpt lat="48.78669" lon="-3.5094">
        <ele>67.45</ele>
        <time>2025-01-28T18:28:34.075Z</time>
      </trkpt>
      <trkpt lat="48.78682" lon="-3.50931">
        <ele>67.43</ele>
        <time>2025-01-28T18:28:38.156Z</time>
      </trkpt>
      <trkpt lat="48.78691" lon="-3.50918">
        <ele>67.37</ele>
        <time>2025-01-28T18:28:42.241Z</time>
      </trkpt>
      <trkpt lat="48.78697" lon="-3.50898">
        <ele>67.28</ele>
        <time>2025-01-28T18:28:46.331Z</time>
      </trkpt>
      <trkpt lat="48.78705" lon="-3.50894">
        <ele>67.17</ele>
        <time>2025-01-28T18:28:50.424Z</time>
      </trkpt>
      <trkpt lat="48.78709" lon="-3.50899">
        <ele>67.05</ele>
        <time>2025-01-28T18:28:54.519Z</time>
      </trkpt>
      <trkpt lat="48.78715" lon="-3.50896">
        <ele>66.91</ele>
        <time>2025-01-28T18:28:58.616Z</time>
      </trkpt>
      <trkpt lat="48.78718" lon="-3.50903">
        <ele>66.79</ele>
        <time>2025-01-28T18:29:02.715Z</time>
      </trkpt>
      <trkpt lat="48.78726" lon="-3.50903">
        <ele>66.66</ele>
        <time>2025-01-28T18:29:06.816Z</time>
      </trkpt>
      <trkpt lat="48.78734" lon="-3.50909">
        <ele>66.56</ele>
        <time>2025-01-28T18:29:10.920Z</time>
      </trkpt>
      <trkpt lat="48.78736" lon="-3.50925">
        <ele>66.5</ele>
        <time>2025-01-28T18:29:15.028Z</time>
      </trkpt>
      <trkpt lat="48.78742" lon="-3.50939">
        <ele>66.44</ele>
        <time>2025-01-28T18:29:19.140Z</time>
      </trkpt>
      <trkpt lat="48.78747" lon="-3.50906">
        <ele>66.46</ele>
        <time>2025-01-28T18:29:23.259Z</time>
      </trkpt>
      <trkpt lat="48.78747" lon="-3.50902">
        <ele>66.52</ele>
        <time>2025-01-28T18:29:27.379Z</time>
      </trkpt>
      <trkpt lat="48.78752" lon="-3.50904">
        <ele>66.61</ele>
        <time>2025-01-28T18:29:31.500Z</time>
      </trkpt>
      <trkpt lat="48.78756" lon="-3.50872">
        <ele>66.79</ele>
        <time>2025-01-28T18:29:35.629Z</time>
      </trkpt>
      <trkpt lat="48.78756" lon="-3.50833">
        <ele>67.01</ele>
        <time>2025-01-28T18:29:39.766Z</time>
      </trkpt>
      <trkpt lat="48.78763" lon="-3.50799">
        <ele>67.3</ele>
        <time>2025-01-28T18:29:43.911Z</time>
      </trkpt>
      <trkpt lat="48.7877" lon="-3.50766">
        <ele>67.59</ele>
        <time>2025-01-28T18:29:48.064Z</time>
      </trkpt>
      <trkpt lat="48.78777" lon="-3.50732">
        <ele>67.88</ele>
        <time>2025-01-28T18:29:52.225Z</time>
      </trkpt>
      <trkpt lat="48.78771" lon="-3.50698">
        <ele>68.13</ele>
        <time>2025-01-28T18:29:56.393Z</time>
      </trkpt>
      <trkpt lat="48.78771" lon="-3.50669">
        <ele>68.41</ele>
        <time>2025-01-28T18:30:00.568Z</time>
      </trkpt>
      <trkpt lat="48.78771" lon="-3.5064">
        <ele>68.73</ele>
        <time>2025-01-28T18:30:04.749Z</time>
      </trkpt>
      <trkpt lat="48.78779" lon="-3.50599">
        <ele>69</ele>
        <time>2025-01-28T18:30:08.940Z</time>
      </trkpt>
      <trkpt lat="48.78779" lon="-3.50599">
        <ele>69.25</ele>
        <time>2025-01-28T18:30:13.131Z</time>
      </trkpt>
      <trkpt lat="48.78779" lon="-3.50599">
        <ele>69</ele>
        <time>2025-01-28T18:30:17.322Z</time>
      </trkpt>
      <trkpt lat="48.78786" lon="-3.5061">
        <ele>69.65</ele>
        <time>2025-01-28T18:30:21.516Z</time>
      </trkpt>
      <trkpt lat="48.7879" lon="-3.50612">
        <ele>69.79</ele>
        <time>2025-01-28T18:30:25.711Z</time>
      </trkpt>
      <trkpt lat="48.78812" lon="-3.50597">
        <ele>69.91</ele>
        <time>2025-01-28T18:30:29.914Z</time>
      </trkpt>
      <trkpt lat="48.78822" lon="-3.50595">
        <ele>69.96</ele>
        <time>2025-01-28T18:30:34.121Z</time>
      </trkpt>
      <trkpt lat="48.78826" lon="-3.50599">
        <ele>69.9</ele>
        <time>2025-01-28T18:30:38.329Z</time>
      </trkpt>
      <trkpt lat="48.78829" lon="-3.50601">
        <ele>69.73</ele>
        <time>2025-01-28T18:30:42.538Z</time>
      </trkpt>
      <trkpt lat="48.78842" lon="-3.5064">
        <ele>69.45</ele>
        <time>2025-01-28T18:30:46.757Z</time>
      </trkpt>
      <trkpt lat="48.78848" lon="-3.50648">
        <ele>69.07</ele>
        <time>2025-01-28T18:30:50.979Z</time>
      </trkpt>
      <trkpt lat="48.78855" lon="-3.50683">
        <ele>68.52</ele>
        <time>2025-01-28T18:30:55.209Z</time>
      </trkpt>
      <trkpt lat="48.7887" lon="-3.50708">
        <ele>67.98</ele>
        <time>2025-01-28T18:30:59.446Z</time>
      </trkpt>
      <trkpt lat="48.78885" lon="-3.50732">
        <ele>67.25</ele>
        <time>2025-01-28T18:31:03.690Z</time>
      </trkpt>
      <trkpt lat="48.78902" lon="-3.50747">
        <ele>66.44</ele>
        <time>2025-01-28T18:31:07.941Z</time>
      </trkpt>
      <trkpt lat="48.78912" lon="-3.50764">
        <ele>65.45</ele>
        <time>2025-01-28T18:31:12.197Z</time>
      </trkpt>
      <trkpt lat="48.78927" lon="-3.50781">
        <ele>64.46</ele>
        <time>2025-01-28T18:31:16.460Z</time>
      </trkpt>
      <trkpt lat="48.78938" lon="-3.50801">
        <ele>63.39</ele>
        <time>2025-01-28T18:31:20.728Z</time>
      </trkpt>
      <trkpt lat="48.78949" lon="-3.5082">
        <ele>62.31</ele>
        <time>2025-01-28T18:31:25.002Z</time>
      </trkpt>
      <trkpt lat="48.78966" lon="-3.50848">
        <ele>61.19</ele>
        <time>2025-01-28T18:31:29.284Z</time>
      </trkpt>
      <trkpt lat="48.78983" lon="-3.50876">
        <ele>60.15</ele>
        <time>2025-01-28T18:31:33.575Z</time>
      </trkpt>
      <trkpt lat="48.79" lon="-3.50893">
        <ele>59.21</ele>
        <time>2025-01-28T18:31:37.872Z</time>
      </trkpt>
      <trkpt lat="48.79028" lon="-3.50908">
        <ele>58.35</ele>
        <time>2025-01-28T18:31:42.179Z</time>
      </trkpt>
      <trkpt lat="48.79044" lon="-3.50925">
        <ele>57.5</ele>
        <time>2025-01-28T18:31:46.493Z</time>
      </trkpt>
      <trkpt lat="48.7906" lon="-3.50942">
        <ele>56.71</ele>
        <time>2025-01-28T18:31:50.813Z</time>
      </trkpt>
      <trkpt lat="48.7906" lon="-3.50942">
        <ele>56.03</ele>
        <time>2025-01-28T18:31:55.133Z</time>
      </trkpt>
      <trkpt lat="48.7908" lon="-3.50964">
        <ele>55.43</ele>
        <time>2025-01-28T18:31:59.461Z</time>
      </trkpt>
      <trkpt lat="48.79098" lon="-3.50975">
        <ele>54.8</ele>
        <time>2025-01-28T18:32:03.796Z</time>
      </trkpt>
      <trkpt lat="48.79116" lon="-3.50985">
        <ele>54.21</ele>
        <time>2025-01-28T18:32:08.137Z</time>
      </trkpt>
      <trkpt lat="48.79138" lon="-3.51013">
        <ele>53.83</ele>
        <time>2025-01-28T18:32:12.488Z</time>
      </trkpt>
      <trkpt lat="48.79153" lon="-3.51024">
        <ele>53.45</ele>
        <time>2025-01-28T18:32:16.844Z</time>
      </trkpt>
      <trkpt lat="48.79174" lon="-3.51028">
        <ele>53.13</ele>
        <time>2025-01-28T18:32:21.208Z</time>
      </trkpt>
      <trkpt lat="48.7919" lon="-3.51036">
        <ele>52.82</ele>
        <time>2025-01-28T18:32:25.577Z</time>
      </trkpt>
      <trkpt lat="48.79206" lon="-3.51043">
        <ele>52.57</ele>
        <time>2025-01-28T18:32:29.952Z</time>
      </trkpt>
      <trkpt lat="48.79226" lon="-3.51043">
        <ele>52.41</ele>
        <time>2025-01-28T18:32:34.333Z</time>
      </trkpt>
      <trkpt lat="48.79245" lon="-3.51043">
        <ele>52.25</ele>
        <time>2025-01-28T18:32:38.721Z</time>
      </trkpt>
      <trkpt lat="48.79275" lon="-3.51039">
        <ele>52.12</ele>
        <time>2025-01-28T18:32:43.119Z</time>
      </trkpt>
      <trkpt lat="48.79305" lon="-3.51035">
        <ele>52.05</ele>
        <time>2025-01-28T18:32:47.527Z</time>
      </trkpt>
      <trkpt lat="48.79316" lon="-3.51043">
        <ele>52.04</ele>
        <time>2025-01-28T18:32:51.939Z</time>
      </trkpt>
      <trkpt lat="48.79317" lon="-3.51049">
        <ele>52.1</ele>
        <time>2025-01-28T18:32:56.352Z</time>
      </trkpt>
      <trkpt lat="48.79325" lon="-3.51085">
        <ele>52.2</ele>
        <time>2025-01-28T18:33:00.774Z</time>
      </trkpt>
      <trkpt lat="48.79333" lon="-3.5112">
        <ele>52.32</ele>
        <time>2025-01-28T18:33:05.204Z</time>
      </trkpt>
      <trkpt lat="48.79336" lon="-3.51146">
        <ele>52.54</ele>
        <time>2025-01-28T18:33:09.640Z</time>
      </trkpt>
      <trkpt lat="48.79339" lon="-3.51172">
        <ele>52.7</ele>
        <time>2025-01-28T18:33:14.081Z</time>
      </trkpt>
      <trkpt lat="48.79344" lon="-3.51181">
        <ele>52.84</ele>
        <time>2025-01-28T18:33:18.525Z</time>
      </trkpt>
      <trkpt lat="48.79352" lon="-3.51187">
        <ele>53.01</ele>
        <time>2025-01-28T18:33:22.972Z</time>
      </trkpt>
      <trkpt lat="48.79369" lon="-3.5119">
        <ele>53.23</ele>
        <time>2025-01-28T18:33:27.425Z</time>
      </trkpt>
      <trkpt lat="48.79387" lon="-3.51193">
        <ele>53.39</ele>
        <time>2025-01-28T18:33:31.884Z</time>
      </trkpt>
      <trkpt lat="48.79402" lon="-3.51204">
        <ele>53.52</ele>
        <time>2025-01-28T18:33:36.348Z</time>
      </trkpt>
      <trkpt lat="48.79415" lon="-3.51232">
        <ele>53.59</ele>
        <time>2025-01-28T18:33:40.820Z</time>
      </trkpt>
      <trkpt lat="48.79412" lon="-3.51238">
        <ele>53.67</ele>
        <time>2025-01-28T18:33:45.293Z</time>
      </trkpt>
      <trkpt lat="48.79406" lon="-3.51262">
        <ele>53.72</ele>
        <time>2025-01-28T18:33:49.772Z</time>
      </trkpt>
      <trkpt lat="48.79397" lon="-3.51283">
        <ele>53.75</ele>
        <time>2025-01-28T18:33:54.256Z</time>
      </trkpt>
      <trkpt lat="48.79389" lon="-3.51303">
        <ele>53.73</ele>
        <time>2025-01-28T18:33:58.745Z</time>
      </trkpt>
      <trkpt lat="48.79385" lon="-3.51333">
        <ele>53.64</ele>
        <time>2025-01-28T18:34:03.241Z</time>
      </trkpt>
      <trkpt lat="48.79387" lon="-3.51354">
        <ele>53.48</ele>
        <time>2025-01-28T18:34:07.742Z</time>
      </trkpt>
      <trkpt lat="48.794" lon="-3.51389">
        <ele>53.17</ele>
        <time>2025-01-28T18:34:12.252Z</time>
      </trkpt>
      <trkpt lat="48.79414" lon="-3.51423">
        <ele>52.77</ele>
        <time>2025-01-28T18:34:16.771Z</time>
      </trkpt>
      <trkpt lat="48.79428" lon="-3.51457">
        <ele>52.28</ele>
        <time>2025-01-28T18:34:21.299Z</time>
      </trkpt>
      <trkpt lat="48.79442" lon="-3.51492">
        <ele>51.66</ele>
        <time>2025-01-28T18:34:25.836Z</time>
      </trkpt>
      <trkpt lat="48.79454" lon="-3.51536">
        <ele>51.08</ele>
        <time>2025-01-28T18:34:30.383Z</time>
      </trkpt>
      <trkpt lat="48.79466" lon="-3.5158">
        <ele>50.26</ele>
        <time>2025-01-28T18:34:34.941Z</time>
      </trkpt>
      <trkpt lat="48.79466" lon="-3.51603">
        <ele>49.52</ele>
        <time>2025-01-28T18:34:39.504Z</time>
      </trkpt>
      <trkpt lat="48.79463" lon="-3.51629">
        <ele>48.76</ele>
        <time>2025-01-28T18:34:44.073Z</time>
      </trkpt>
      <trkpt lat="48.7946" lon="-3.51655">
        <ele>48.07</ele>
        <time>2025-01-28T18:34:48.647Z</time>
      </trkpt>
      <trkpt lat="48.79457" lon="-3.51691">
        <ele>47.45</ele>
        <time>2025-01-28T18:34:53.229Z</time>
      </trkpt>
      <trkpt lat="48.79455" lon="-3.51728">
        <ele>46.91</ele>
        <time>2025-01-28T18:34:57.819Z</time>
      </trkpt>
      <trkpt lat="48.79457" lon="-3.5176">
        <ele>46.29</ele>
        <time>2025-01-28T18:35:02.417Z</time>
      </trkpt>
      <trkpt lat="48.79459" lon="-3.51766">
        <ele>45.68</ele>
        <time>2025-01-28T18:35:07.016Z</time>
      </trkpt>
      <trkpt lat="48.79464" lon="-3.51786">
        <ele>45.04</ele>
        <time>2025-01-28T18:35:11.620Z</time>
      </trkpt>
      <trkpt lat="48.79475" lon="-3.51804">
        <ele>44.42</ele>
        <time>2025-01-28T18:35:16.229Z</time>
      </trkpt>
      <trkpt lat="48.79485" lon="-3.51822">
        <ele>43.8</ele>
        <time>2025-01-28T18:35:20.843Z</time>
      </trkpt>
      <trkpt lat="48.79505" lon="-3.5184">
        <ele>43.17</ele>
        <time>2025-01-28T18:35:25.465Z</time>
      </trkpt>
      <trkpt lat="48.79524" lon="-3.51858">
        <ele>42.54</ele>
        <time>2025-01-28T18:35:30.094Z</time>
      </trkpt>
      <trkpt lat="48.79543" lon="-3.51876">
        <ele>41.93</ele>
        <time>2025-01-28T18:35:34.731Z</time>
      </trkpt>
      <trkpt lat="48.79557" lon="-3.51898">
        <ele>41.36</ele>
        <time>2025-01-28T18:35:39.375Z</time>
      </trkpt>
      <trkpt lat="48.79571" lon="-3.51921">
        <ele>40.8</ele>
        <time>2025-01-28T18:35:44.026Z</time>
      </trkpt>
      <trkpt lat="48.79583" lon="-3.51947">
        <ele>40.19</ele>
        <time>2025-01-28T18:35:48.684Z</time>
      </trkpt>
      <trkpt lat="48.79595" lon="-3.51972">
        <ele>39.67</ele>
        <time>2025-01-28T18:35:53.348Z</time>
      </trkpt>
      <trkpt lat="48.79616" lon="-3.51997">
        <ele>39.13</ele>
        <time>2025-01-28T18:35:58.021Z</time>
      </trkpt>
      <trkpt lat="48.79636" lon="-3.52022">
        <ele>38.62</ele>
        <time>2025-01-28T18:36:02.703Z</time>
      </trkpt>
      <trkpt lat="48.79657" lon="-3.52047">
        <ele>38.14</ele>
        <time>2025-01-28T18:36:07.394Z</time>
      </trkpt>
      <trkpt lat="48.79666" lon="-3.52069">
        <ele>37.73</ele>
        <time>2025-01-28T18:36:12.091Z</time>
      </trkpt>
      <trkpt lat="48.79672" lon="-3.52103">
        <ele>37.34</ele>
        <time>2025-01-28T18:36:16.795Z</time>
      </trkpt>
      <trkpt lat="48.79673" lon="-3.52143">
        <ele>36.98</ele>
        <time>2025-01-28T18:36:21.508Z</time>
      </trkpt>
      <trkpt lat="48.79674" lon="-3.52183">
        <ele>36.62</ele>
        <time>2025-01-28T18:36:26.230Z</time>
      </trkpt>
      <trkpt lat="48.79686" lon="-3.52212">
        <ele>36.29</ele>
        <time>2025-01-28T18:36:30.960Z</time>
      </trkpt>
      <trkpt lat="48.79698" lon="-3.52241">
        <ele>35.91</ele>
        <time>2025-01-28T18:36:35.697Z</time>
      </trkpt>
      <trkpt lat="48.79698" lon="-3.52241">
        <ele>35.62</ele>
        <time>2025-01-28T18:36:40.434Z</time>
      </trkpt>
      <trkpt lat="48.79704" lon="-3.52256">
        <ele>35.33</ele>
        <time>2025-01-28T18:36:45.175Z</time>
      </trkpt>
      <trkpt lat="48.79721" lon="-3.52258">
        <ele>35.04</ele>
        <time>2025-01-28T18:36:49.922Z</time>
      </trkpt>
      <trkpt lat="48.79721" lon="-3.52258">
        <ele>34.83</ele>
        <time>2025-01-28T18:36:54.669Z</time>
      </trkpt>
      <trkpt lat="48.79745" lon="-3.5226">
        <ele>34.58</ele>
        <time>2025-01-28T18:36:59.424Z</time>
      </trkpt>
      <trkpt lat="48.79769" lon="-3.52262">
        <ele>34.37</ele>
        <time>2025-01-28T18:37:04.186Z</time>
      </trkpt>
      <trkpt lat="48.79792" lon="-3.52264">
        <ele>34.24</ele>
        <time>2025-01-28T18:37:08.956Z</time>
      </trkpt>
      <trkpt lat="48.79816" lon="-3.52266">
        <ele>34.24</ele>
        <time>2025-01-28T18:37:13.734Z</time>
      </trkpt>
      <trkpt lat="48.79838" lon="-3.52264">
        <ele>34.32</ele>
        <time>2025-01-28T18:37:18.520Z</time>
      </trkpt>
      <trkpt lat="48.7986" lon="-3.52262">
        <ele>34.37</ele>
        <time>2025-01-28T18:37:23.313Z</time>
      </trkpt>
      <trkpt lat="48.79882" lon="-3.5226">
        <ele>34.47</ele>
        <time>2025-01-28T18:37:28.113Z</time>
      </trkpt>
      <trkpt lat="48.79911" lon="-3.52261">
        <ele>34.58</ele>
        <time>2025-01-28T18:37:32.923Z</time>
      </trkpt>
      <trkpt lat="48.79939" lon="-3.52263">
        <ele>34.73</ele>
        <time>2025-01-28T18:37:37.742Z</time>
      </trkpt>
      <trkpt lat="48.79968" lon="-3.52265">
        <ele>34.92</ele>
        <time>2025-01-28T18:37:42.571Z</time>
      </trkpt>
      <trkpt lat="48.79996" lon="-3.52266">
        <ele>35.15</ele>
        <time>2025-01-28T18:37:47.409Z</time>
      </trkpt>
      <trkpt lat="48.80024" lon="-3.52268">
        <ele>35.4</ele>
        <time>2025-01-28T18:37:52.257Z</time>
      </trkpt>
      <trkpt lat="48.80053" lon="-3.5227">
        <ele>35.75</ele>
        <time>2025-01-28T18:37:57.114Z</time>
      </trkpt>
      <trkpt lat="48.80081" lon="-3.52271">
        <ele>36.19</ele>
        <time>2025-01-28T18:38:01.981Z</time>
      </trkpt>
      <trkpt lat="48.8011" lon="-3.52273">
        <ele>36.63</ele>
        <time>2025-01-28T18:38:06.857Z</time>
      </trkpt>
      <trkpt lat="48.80139" lon="-3.52267">
        <ele>37.17</ele>
        <time>2025-01-28T18:38:11.743Z</time>
      </trkpt>
      <trkpt lat="48.80168" lon="-3.52261">
        <ele>37.8</ele>
        <time>2025-01-28T18:38:16.639Z</time>
      </trkpt>
      <trkpt lat="48.80198" lon="-3.52256">
        <ele>38.4</ele>
        <time>2025-01-28T18:38:21.545Z</time>
      </trkpt>
      <trkpt lat="48.80219" lon="-3.52253">
        <ele>39.04</ele>
        <time>2025-01-28T18:38:26.458Z</time>
      </trkpt>
      <trkpt lat="48.80241" lon="-3.52251">
        <ele>39.76</ele>
        <time>2025-01-28T18:38:31.378Z</time>
      </trkpt>
      <trkpt lat="48.80269" lon="-3.52257">
        <ele>40.58</ele>
        <time>2025-01-28T18:38:36.308Z</time>
      </trkpt>
      <trkpt lat="48.80296" lon="-3.52262">
        <ele>41.51</ele>
        <time>2025-01-28T18:38:41.247Z</time>
      </trkpt>
      <trkpt lat="48.80314" lon="-3.52269">
        <ele>42.4</ele>
        <time>2025-01-28T18:38:46.192Z</time>
      </trkpt>
      <trkpt lat="48.80318" lon="-3.52271">
        <ele>43.23</ele>
        <time>2025-01-28T18:38:51.138Z</time>
      </trkpt>
      <trkpt lat="48.80329" lon="-3.52237">
        <ele>44.06</ele>
        <time>2025-01-28T18:38:56.093Z</time>
      </trkpt>
      <trkpt lat="48.8034" lon="-3.52203">
        <ele>44.86</ele>
        <time>2025-01-28T18:39:01.056Z</time>
      </trkpt>
      <trkpt lat="48.80352" lon="-3.52169">
        <ele>45.75</ele>
        <time>2025-01-28T18:39:06.028Z</time>
      </trkpt>
      <trkpt lat="48.80363" lon="-3.52135">
        <ele>46.7</ele>
        <time>2025-01-28T18:39:11.008Z</time>
      </trkpt>
      <trkpt lat="48.80376" lon="-3.5211">
        <ele>47.7</ele>
        <time>2025-01-28T18:39:15.995Z</time>
      </trkpt>
      <trkpt lat="48.80397" lon="-3.52103">
        <ele>48.63</ele>
        <time>2025-01-28T18:39:20.989Z</time>
      </trkpt>
      <trkpt lat="48.80419" lon="-3.52105">
        <ele>49.56</ele>
        <time>2025-01-28T18:39:25.990Z</time>
      </trkpt>
      <trkpt lat="48.8044" lon="-3.52108">
        <ele>50.45</ele>
        <time>2025-01-28T18:39:30.999Z</time>
      </trkpt>
      <trkpt lat="48.80462" lon="-3.5211">
        <ele>51.23</ele>
        <time>2025-01-28T18:39:36.015Z</time>
      </trkpt>
      <trkpt lat="48.80487" lon="-3.52095">
        <ele>51.95</ele>
        <time>2025-01-28T18:39:41.040Z</time>
      </trkpt>
      <trkpt lat="48.80498" lon="-3.52095">
        <ele>52.55</ele>
        <time>2025-01-28T18:39:46.069Z</time>
      </trkpt>
      <trkpt lat="48.80516" lon="-3.52081">
        <ele>53.13</ele>
        <time>2025-01-28T18:39:51.104Z</time>
      </trkpt>
      <trkpt lat="48.80535" lon="-3.52067">
        <ele>53.69</ele>
        <time>2025-01-28T18:39:56.146Z</time>
      </trkpt>
      <trkpt lat="48.80558" lon="-3.52054">
        <ele>54.15</ele>
        <time>2025-01-28T18:40:01.197Z</time>
      </trkpt>
      <trkpt lat="48.80586" lon="-3.52045">
        <ele>54.42</ele>
        <time>2025-01-28T18:40:06.257Z</time>
      </trkpt>
      <trkpt lat="48.80614" lon="-3.52037">
        <ele>54.55</ele>
        <time>2025-01-28T18:40:11.327Z</time>
      </trkpt>
      <trkpt lat="48.80635" lon="-3.52035">
        <ele>54.51</ele>
        <time>2025-01-28T18:40:16.404Z</time>
      </trkpt>
      <trkpt lat="48.80657" lon="-3.52032">
        <ele>54.4</ele>
        <time>2025-01-28T18:40:21.488Z</time>
      </trkpt>
      <trkpt lat="48.80685" lon="-3.52033">
        <ele>54.25</ele>
        <time>2025-01-28T18:40:26.581Z</time>
      </trkpt>
      <trkpt lat="48.80713" lon="-3.52035">
        <ele>53.96</ele>
        <time>2025-01-28T18:40:31.684Z</time>
      </trkpt>
      <trkpt lat="48.80732" lon="-3.52035">
        <ele>53.41</ele>
        <time>2025-01-28T18:40:36.793Z</time>
      </trkpt>
      <trkpt lat="48.80747" lon="-3.52027">
        <ele>52.65</ele>
        <time>2025-01-28T18:40:41.907Z</time>
      </trkpt>
      <trkpt lat="48.80762" lon="-3.5202">
        <ele>51.75</ele>
        <time>2025-01-28T18:40:47.027Z</time>
      </trkpt>
      <trkpt lat="48.8078" lon="-3.52018">
        <ele>50.68</ele>
        <time>2025-01-28T18:40:52.153Z</time>
      </trkpt>
      <trkpt lat="48.80799" lon="-3.52017">
        <ele>49.53</ele>
        <time>2025-01-28T18:40:57.285Z</time>
      </trkpt>
      <trkpt lat="48.80811" lon="-3.52022">
        <ele>48.31</ele>
        <time>2025-01-28T18:41:02.421Z</time>
      </trkpt>
      <trkpt lat="48.80831" lon="-3.52017">
        <ele>46.99</ele>
        <time>2025-01-28T18:41:07.564Z</time>
      </trkpt>
      <trkpt lat="48.80859" lon="-3.52022">
        <ele>45.59</ele>
        <time>2025-01-28T18:41:12.716Z</time>
      </trkpt>
      <trkpt lat="48.80883" lon="-3.52014">
        <ele>44.29</ele>
        <time>2025-01-28T18:41:17.876Z</time>
      </trkpt>
      <trkpt lat="48.80908" lon="-3.52007">
        <ele>43.01</ele>
        <time>2025-01-28T18:41:23.045Z</time>
      </trkpt>
      <trkpt lat="48.80925" lon="-3.51994">
        <ele>41.72</ele>
        <time>2025-01-28T18:41:28.220Z</time>
      </trkpt>
      <trkpt lat="48.80949" lon="-3.51998">
        <ele>40.49</ele>
        <time>2025-01-28T18:41:33.403Z</time>
      </trkpt>
      <trkpt lat="48.80972" lon="-3.52002">
        <ele>39.35</ele>
        <time>2025-01-28T18:41:38.594Z</time>
      </trkpt>
      <trkpt lat="48.80992" lon="-3.52002">
        <ele>38.25</ele>
        <time>2025-01-28T18:41:43.791Z</time>
      </trkpt>
      <trkpt lat="48.81" lon="-3.52">
        <ele>37.22</ele>
        <time>2025-01-28T18:41:48.991Z</time>
      </trkpt>
      <trkpt lat="48.81024" lon="-3.51979">
        <ele>36.22</ele>
        <time>2025-01-28T18:41:54.201Z</time>
      </trkpt>
      <trkpt lat="48.81047" lon="-3.51977">
        <ele>35.3</ele>
        <time>2025-01-28T18:41:59.418Z</time>
      </trkpt>
      <trkpt lat="48.81069" lon="-3.51978">
        <ele>34.42</ele>
        <time>2025-01-28T18:42:04.643Z</time>
      </trkpt>
      <trkpt lat="48.81082" lon="-3.51979">
        <ele>34.2</ele>
        <time>2025-01-28T18:42:09.872Z</time>
      </trkpt>
      <trkpt lat="48.81069" lon="-3.51949">
        <ele>32.92</ele>
        <time>2025-01-28T18:42:15.109Z</time>
      </trkpt>
      <trkpt lat="48.81052" lon="-3.51914">
        <ele>32.53</ele>
        <time>2025-01-28T18:42:20.355Z</time>
      </trkpt>
      <trkpt lat="48.81048" lon="-3.51907">
        <ele>32.11</ele>
        <time>2025-01-28T18:42:25.603Z</time>
      </trkpt>
      <trkpt lat="48.81048" lon="-3.51907">
        <ele>31.79</ele>
        <time>2025-01-28T18:42:30.851Z</time>
      </trkpt>
      <trkpt lat="48.81031" lon="-3.51869">
        <ele>31.58</ele>
        <time>2025-01-28T18:42:36.110Z</time>
      </trkpt>
      <trkpt lat="48.81013" lon="-3.51831">
        <ele>31.39</ele>
        <time>2025-01-28T18:42:41.379Z</time>
      </trkpt>
      <trkpt lat="48.81005" lon="-3.51803">
        <ele>31.32</ele>
        <time>2025-01-28T18:42:46.655Z</time>
      </trkpt>
      <trkpt lat="48.80998" lon="-3.5176">
        <ele>31.23</ele>
        <time>2025-01-28T18:42:51.940Z</time>
      </trkpt>
      <trkpt lat="48.80997" lon="-3.51727">
        <ele>31.38</ele>
        <time>2025-01-28T18:42:57.233Z</time>
      </trkpt>
      <trkpt lat="48.80997" lon="-3.51694">
        <ele>31.64</ele>
        <time>2025-01-28T18:43:02.533Z</time>
      </trkpt>
      <trkpt lat="48.80996" lon="-3.51661">
        <ele>32.01</ele>
        <time>2025-01-28T18:43:07.840Z</time>
      </trkpt>
      <trkpt lat="48.80993" lon="-3.51625">
        <ele>32.56</ele>
        <time>2025-01-28T18:43:13.155Z</time>
      </trkpt>
      <trkpt lat="48.8099" lon="-3.51588">
        <ele>33.18</ele>
        <time>2025-01-28T18:43:18.478Z</time>
      </trkpt>
      <trkpt lat="48.80992" lon="-3.51563">
        <ele>33.74</ele>
        <time>2025-01-28T18:43:23.807Z</time>
      </trkpt>
      <trkpt lat="48.80992" lon="-3.51563">
        <ele>34.33</ele>
        <time>2025-01-28T18:43:29.136Z</time>
      </trkpt>
      <trkpt lat="48.80997" lon="-3.51527">
        <ele>34.97</ele>
        <time>2025-01-28T18:43:34.473Z</time>
      </trkpt>
      <trkpt lat="48.81002" lon="-3.51492">
        <ele>35.6</ele>
        <time>2025-01-28T18:43:39.818Z</time>
      </trkpt>
      <trkpt lat="48.81013" lon="-3.51455">
        <ele>36.19</ele>
        <time>2025-01-28T18:43:45.172Z</time>
      </trkpt>
      <trkpt lat="48.81024" lon="-3.51419">
        <ele>36.87</ele>
        <time>2025-01-28T18:43:50.535Z</time>
      </trkpt>
      <trkpt lat="48.81035" lon="-3.51382">
        <ele>37.61</ele>
        <time>2025-01-28T18:43:55.906Z</time>
      </trkpt>
      <trkpt lat="48.81039" lon="-3.51361">
        <ele>38.19</ele>
        <time>2025-01-28T18:44:01.282Z</time>
      </trkpt>
      <trkpt lat="48.8104" lon="-3.51334">
        <ele>38.71</ele>
        <time>2025-01-28T18:44:06.664Z</time>
      </trkpt>
      <trkpt lat="48.81041" lon="-3.51307">
        <ele>39.15</ele>
        <time>2025-01-28T18:44:12.052Z</time>
      </trkpt>
      <trkpt lat="48.81045" lon="-3.51279">
        <ele>39.44</ele>
        <time>2025-01-28T18:44:17.446Z</time>
      </trkpt>
      <trkpt lat="48.8105" lon="-3.51251">
        <ele>39.61</ele>
        <time>2025-01-28T18:44:22.847Z</time>
      </trkpt>
      <trkpt lat="48.81051" lon="-3.51224">
        <ele>39.59</ele>
        <time>2025-01-28T18:44:28.254Z</time>
      </trkpt>
      <trkpt lat="48.81052" lon="-3.51198">
        <ele>39.45</ele>
        <time>2025-01-28T18:44:33.667Z</time>
      </trkpt>
      <trkpt lat="48.81057" lon="-3.51158">
        <ele>39.16</ele>
        <time>2025-01-28T18:44:39.089Z</time>
      </trkpt>
      <trkpt lat="48.81063" lon="-3.51118">
        <ele>38.64</ele>
        <time>2025-01-28T18:44:44.520Z</time>
      </trkpt>
      <trkpt lat="48.81065" lon="-3.51103">
        <ele>37.94</ele>
        <time>2025-01-28T18:44:49.954Z</time>
      </trkpt>
      <trkpt lat="48.81065" lon="-3.5108">
        <ele>37.05</ele>
        <time>2025-01-28T18:44:55.393Z</time>
      </trkpt>
      <trkpt lat="48.81086" lon="-3.51065">
        <ele>35.93</ele>
        <time>2025-01-28T18:45:00.840Z</time>
      </trkpt>
      <trkpt lat="48.81108" lon="-3.51057">
        <ele>34.77</ele>
        <time>2025-01-28T18:45:06.294Z</time>
      </trkpt>
      <trkpt lat="48.81129" lon="-3.5105">
        <ele>33.53</ele>
        <time>2025-01-28T18:45:11.756Z</time>
      </trkpt>
      <trkpt lat="48.81135" lon="-3.5106">
        <ele>32.33</ele>
        <time>2025-01-28T18:45:17.221Z</time>
      </trkpt>
      <trkpt lat="48.81143" lon="-3.51083">
        <ele>31.01</ele>
        <time>2025-01-28T18:45:22.691Z</time>
      </trkpt>
      <trkpt lat="48.8115" lon="-3.51105">
        <ele>29.72</ele>
        <time>2025-01-28T18:45:28.167Z</time>
      </trkpt>
      <trkpt lat="48.81166" lon="-3.51135">
        <ele>28.44</ele>
        <time>2025-01-28T18:45:33.651Z</time>
      </trkpt>
      <trkpt lat="48.8117" lon="-3.51146">
        <ele>27.23</ele>
        <time>2025-01-28T18:45:39.138Z</time>
      </trkpt>
      <trkpt lat="48.81193" lon="-3.51169">
        <ele>25.94</ele>
        <time>2025-01-28T18:45:44.634Z</time>
      </trkpt>
      <trkpt lat="48.81217" lon="-3.51191">
        <ele>24.59</ele>
        <time>2025-01-28T18:45:50.140Z</time>
      </trkpt>
      <trkpt lat="48.8124" lon="-3.51224">
        <ele>23.39</ele>
        <time>2025-01-28T18:45:55.656Z</time>
      </trkpt>
      <trkpt lat="48.81262" lon="-3.51256">
        <ele>22.21</ele>
        <time>2025-01-28T18:46:01.182Z</time>
      </trkpt>
      <trkpt lat="48.81286" lon="-3.51275">
        <ele>21.1</ele>
        <time>2025-01-28T18:46:06.717Z</time>
      </trkpt>
      <trkpt lat="48.81305" lon="-3.51288">
        <ele>20.11</ele>
        <time>2025-01-28T18:46:12.259Z</time>
      </trkpt>
      <trkpt lat="48.81324" lon="-3.51301">
        <ele>19.21</ele>
        <time>2025-01-28T18:46:17.808Z</time>
      </trkpt>
      <trkpt lat="48.81345" lon="-3.51319">
        <ele>18.48</ele>
        <time>2025-01-28T18:46:23.365Z</time>
      </trkpt>
      <trkpt lat="48.81365" lon="-3.51337">
        <ele>17.89</ele>
        <time>2025-01-28T18:46:28.930Z</time>
      </trkpt>
      <trkpt lat="48.81375" lon="-3.5135">
        <ele>17.31</ele>
        <time>2025-01-28T18:46:34.500Z</time>
      </trkpt>
      <trkpt lat="48.81387" lon="-3.51363">
        <ele>16.77</ele>
        <time>2025-01-28T18:46:40.074Z</time>
      </trkpt>
      <trkpt lat="48.81391" lon="-3.51397">
        <ele>16.32</ele>
        <time>2025-01-28T18:46:45.656Z</time>
      </trkpt>
      <trkpt lat="48.81404" lon="-3.51414">
        <ele>15.94</ele>
        <time>2025-01-28T18:46:51.244Z</time>
      </trkpt>
      <trkpt lat="48.81417" lon="-3.51432">
        <ele>15.59</ele>
        <time>2025-01-28T18:46:56.837Z</time>
      </trkpt>
      <trkpt lat="48.81432" lon="-3.51472">
        <ele>15.38</ele>
        <time>2025-01-28T18:47:02.441Z</time>
      </trkpt>
      <trkpt lat="48.81439" lon="-3.51509">
        <ele>15.25</ele>
        <time>2025-01-28T18:47:08.053Z</time>
      </trkpt>
      <trkpt lat="48.81447" lon="-3.51546">
        <ele>15.15</ele>
        <time>2025-01-28T18:47:13.674Z</time>
      </trkpt>
      <trkpt lat="48.81455" lon="-3.51582">
        <ele>15.06</ele>
        <time>2025-01-28T18:47:19.303Z</time>
      </trkpt>
      <trkpt lat="48.81464" lon="-3.5161">
        <ele>14.97</ele>
        <time>2025-01-28T18:47:24.939Z</time>
      </trkpt>
      <trkpt lat="48.81472" lon="-3.51638">
        <ele>14.92</ele>
        <time>2025-01-28T18:47:30.582Z</time>
      </trkpt>
      <trkpt lat="48.81482" lon="-3.51659">
        <ele>14.76</ele>
        <time>2025-01-28T18:47:36.230Z</time>
      </trkpt>
      <trkpt lat="48.81491" lon="-3.5168">
        <ele>14.66</ele>
        <time>2025-01-28T18:47:41.884Z</time>
      </trkpt>
      <trkpt lat="48.81498" lon="-3.51698">
        <ele>15.83</ele>
        <time>2025-01-28T18:47:47.542Z</time>
      </trkpt>
      <trkpt lat="48.81515" lon="-3.51673">
        <ele>14.45</ele>
        <time>2025-01-28T18:47:53.208Z</time>
      </trkpt>
      <trkpt lat="48.81531" lon="-3.51649">
        <ele>14.33</ele>
        <time>2025-01-28T18:47:58.882Z</time>
      </trkpt>
      <trkpt lat="48.81547" lon="-3.51625">
        <ele>14.56</ele>
        <time>2025-01-28T18:48:04.563Z</time>
      </trkpt>
      <trkpt lat="48.81567" lon="-3.51608">
        <ele>14.17</ele>
        <time>2025-01-28T18:48:10.252Z</time>
      </trkpt>
      <trkpt lat="48.81583" lon="-3.51596">
        <ele>13.91</ele>
        <time>2025-01-28T18:48:15.947Z</time>
      </trkpt>
      <trkpt lat="48.81599" lon="-3.51584">
        <ele>13.61</ele>
        <time>2025-01-28T18:48:21.648Z</time>
      </trkpt>
      <trkpt lat="48.81625" lon="-3.51573">
        <ele>13.73</ele>
        <time>2025-01-28T18:48:27.358Z</time>
      </trkpt>
      <trkpt lat="48.8165" lon="-3.51563">
        <ele>13.22</ele>
        <time>2025-01-28T18:48:33.077Z</time>
      </trkpt>
      <trkpt lat="48.81664" lon="-3.5155">
        <ele>13.48</ele>
        <time>2025-01-28T18:48:38.801Z</time>
      </trkpt>
      <trkpt lat="48.81678" lon="-3.51537">
        <ele>12.78</ele>
        <time>2025-01-28T18:48:44.531Z</time>
      </trkpt>
      <trkpt lat="48.81696" lon="-3.51519">
        <ele>13.17</ele>
        <time>2025-01-28T18:48:50.268Z</time>
      </trkpt>
      <trkpt lat="48.81714" lon="-3.51502">
        <ele>13.02</ele>
        <time>2025-01-28T18:48:56.012Z</time>
      </trkpt>
      <trkpt lat="48.81731" lon="-3.51484">
        <ele>12.95</ele>
        <time>2025-01-28T18:49:01.763Z</time>
      </trkpt>
      <trkpt lat="48.81734" lon="-3.51481">
        <ele>12.33</ele>
        <time>2025-01-28T18:49:07.515Z</time>
      </trkpt>
      <trkpt lat="48.8173" lon="-3.51442">
        <ele>12.26</ele>
        <time>2025-01-28T18:49:13.275Z</time>
      </trkpt>
      <trkpt lat="48.81755" lon="-3.51447">
        <ele>12.98</ele>
        <time>2025-01-28T18:49:19.044Z</time>
      </trkpt>
      <trkpt lat="48.81779" lon="-3.51451">
        <ele>12.47</ele>
        <time>2025-01-28T18:49:24.821Z</time>
      </trkpt>
      <trkpt lat="48.8181" lon="-3.51455">
        <ele>13.15</ele>
        <time>2025-01-28T18:49:30.608Z</time>
      </trkpt>
      <trkpt lat="48.81841" lon="-3.51459">
        <ele>13.15</ele>
        <time>2025-01-28T18:49:36.406Z</time>
      </trkpt>
      <trkpt lat="48.81871" lon="-3.51463">
        <ele>13.32</ele>
        <time>2025-01-28T18:49:42.214Z</time>
      </trkpt>
      <trkpt lat="48.81902" lon="-3.51467">
        <ele>13.59</ele>
        <time>2025-01-28T18:49:48.032Z</time>
      </trkpt>
      <trkpt lat="48.81933" lon="-3.51472">
        <ele>13.97</ele>
        <time>2025-01-28T18:49:53.860Z</time>
      </trkpt>
      <trkpt lat="48.81964" lon="-3.51476">
        <ele>14.35</ele>
        <time>2025-01-28T18:49:59.699Z</time>
      </trkpt>
      <trkpt lat="48.81994" lon="-3.5148">
        <ele>14.79</ele>
        <time>2025-01-28T18:50:05.548Z</time>
      </trkpt>
      <trkpt lat="48.82002" lon="-3.51481">
        <ele>14.68</ele>
        <time>2025-01-28T18:50:11.400Z</time>
      </trkpt>
      <trkpt lat="48.82017" lon="-3.51496">
        <ele>15.08</ele>
        <time>2025-01-28T18:50:17.258Z</time>
      </trkpt>
      <trkpt lat="48.82017" lon="-3.51505">
        <ele>15.9</ele>
        <time>2025-01-28T18:50:23.118Z</time>
      </trkpt>
      <trkpt lat="48.82028" lon="-3.51502">
        <ele>16.79</ele>
        <time>2025-01-28T18:50:28.981Z</time>
      </trkpt>
      <trkpt lat="48.82045" lon="-3.51468">
        <ele>17.26</ele>
        <time>2025-01-28T18:50:34.854Z</time>
      </trkpt>
      <trkpt lat="48.8205" lon="-3.51468">
        <ele>17.65</ele>
        <time>2025-01-28T18:50:40.728Z</time>
      </trkpt>
      <trkpt lat="48.82065" lon="-3.51479">
        <ele>18.04</ele>
        <time>2025-01-28T18:50:46.608Z</time>
      </trkpt>
      <trkpt lat="48.82077" lon="-3.51475">
        <ele>18.39</ele>
        <time>2025-01-28T18:50:52.492Z</time>
      </trkpt>
      <trkpt lat="48.8209" lon="-3.51449">
        <ele>18.54</ele>
        <time>2025-01-28T18:50:58.383Z</time>
      </trkpt>
      <trkpt lat="48.82103" lon="-3.51423">
        <ele>18.95</ele>
        <time>2025-01-28T18:51:04.281Z</time>
      </trkpt>
      <trkpt lat="48.82124" lon="-3.514">
        <ele>19.06</ele>
        <time>2025-01-28T18:51:10.188Z</time>
      </trkpt>
      <trkpt lat="48.82146" lon="-3.51377">
        <ele>19.15</ele>
        <time>2025-01-28T18:51:16.104Z</time>
      </trkpt>
      <trkpt lat="48.82153" lon="-3.51369">
        <ele>19.28</ele>
        <time>2025-01-28T18:51:22.023Z</time>
      </trkpt>
      <trkpt lat="48.82155" lon="-3.51359">
        <ele>19.3</ele>
        <time>2025-01-28T18:51:27.944Z</time>
      </trkpt>
      <trkpt lat="48.82165" lon="-3.51391">
        <ele>19.23</ele>
        <time>2025-01-28T18:51:33.873Z</time>
      </trkpt>
      <trkpt lat="48.82177" lon="-3.5142">
        <ele>19.16</ele>
        <time>2025-01-28T18:51:39.810Z</time>
      </trkpt>
      <trkpt lat="48.82189" lon="-3.51449">
        <ele>19.11</ele>
        <time>2025-01-28T18:51:45.754Z</time>
      </trkpt>
      <trkpt lat="48.82213" lon="-3.51451">
        <ele>18.96</ele>
        <time>2025-01-28T18:51:51.706Z</time>
      </trkpt>
      <trkpt lat="48.82232" lon="-3.51475">
        <ele>18.76</ele>
        <time>2025-01-28T18:51:57.666Z</time>
      </trkpt>
      <trkpt lat="48.82241" lon="-3.51457">
        <ele>18.56</ele>
        <time>2025-01-28T18:52:03.631Z</time>
      </trkpt>
      <trkpt lat="48.82247" lon="-3.51447">
        <ele>18.25</ele>
        <time>2025-01-28T18:52:09.599Z</time>
      </trkpt>
      <trkpt lat="48.82253" lon="-3.51442">
        <ele>18.01</ele>
        <time>2025-01-28T18:52:15.569Z</time>
      </trkpt>
      <trkpt lat="48.82266" lon="-3.51463">
        <ele>17.7</ele>
        <time>2025-01-28T18:52:21.546Z</time>
      </trkpt>
      <trkpt lat="48.82279" lon="-3.51483">
        <ele>17.31</ele>
        <time>2025-01-28T18:52:27.529Z</time>
      </trkpt>
      <trkpt lat="48.82298" lon="-3.51513">
        <ele>16.97</ele>
        <time>2025-01-28T18:52:33.521Z</time>
      </trkpt>
      <trkpt lat="48.82307" lon="-3.51515">
        <ele>16.69</ele>
        <time>2025-01-28T18:52:39.516Z</time>
      </trkpt>
      <trkpt lat="48.82309" lon="-3.51515">
        <ele>16.41</ele>
        <time>2025-01-28T18:52:45.512Z</time>
      </trkpt>
      <trkpt lat="48.8232" lon="-3.51507">
        <ele>16.15</ele>
        <time>2025-01-28T18:52:51.512Z</time>
      </trkpt>
      <trkpt lat="48.82336" lon="-3.51484">
        <ele>15.9</ele>
        <time>2025-01-28T18:52:57.519Z</time>
      </trkpt>
      <trkpt lat="48.82352" lon="-3.51462">
        <ele>15.74</ele>
        <time>2025-01-28T18:53:03.533Z</time>
      </trkpt>
      <trkpt lat="48.82352" lon="-3.51462">
        <ele>15.62</ele>
        <time>2025-01-28T18:53:09.547Z</time>
      </trkpt>
      <trkpt lat="48.82363" lon="-3.51436">
        <ele>15.56</ele>
        <time>2025-01-28T18:53:15.568Z</time>
      </trkpt>
      <trkpt lat="48.8238" lon="-3.51411">
        <ele>15.49</ele>
        <time>2025-01-28T18:53:21.597Z</time>
      </trkpt>
      <trkpt lat="48.82397" lon="-3.51387">
        <ele>15.67</ele>
        <time>2025-01-28T18:53:27.634Z</time>
      </trkpt>
      <trkpt lat="48.82402" lon="-3.51391">
        <ele>15.63</ele>
        <time>2025-01-28T18:53:33.673Z</time>
      </trkpt>
      <trkpt lat="48.82416" lon="-3.51403">
        <ele>15.75</ele>
        <time>2025-01-28T18:53:39.717Z</time>
      </trkpt>
      <trkpt lat="48.82429" lon="-3.51414">
        <ele>15.96</ele>
        <time>2025-01-28T18:53:45.766Z</time>
      </trkpt>
      <trkpt lat="48.82447" lon="-3.51429">
        <ele>16.04</ele>
        <time>2025-01-28T18:53:51.822Z</time>
      </trkpt>
      <trkpt lat="48.82472" lon="-3.51438">
        <ele>16.21</ele>
        <time>2025-01-28T18:53:57.887Z</time>
      </trkpt>
      <trkpt lat="48.82499" lon="-3.5144">
        <ele>16.39</ele>
        <time>2025-01-28T18:54:03.961Z</time>
      </trkpt>
      <trkpt lat="48.82527" lon="-3.51442">
        <ele>16.71</ele>
        <time>2025-01-28T18:54:10.044Z</time>
      </trkpt>
      <trkpt lat="48.82535" lon="-3.51442">
        <ele>16.8</ele>
        <time>2025-01-28T18:54:16.129Z</time>
      </trkpt>
      <trkpt lat="48.8253" lon="-3.51451">
        <ele>17.19</ele>
        <time>2025-01-28T18:54:22.217Z</time>
      </trkpt>
      <trkpt lat="48.82552" lon="-3.51468">
        <ele>17.6</ele>
        <time>2025-01-28T18:54:28.313Z</time>
      </trkpt>
      <trkpt lat="48.82565" lon="-3.51494">
        <ele>17.79</ele>
        <time>2025-01-28T18:54:34.416Z</time>
      </trkpt>
      <trkpt lat="48.82573" lon="-3.51505">
        <ele>18.08</ele>
        <time>2025-01-28T18:54:40.523Z</time>
      </trkpt>
      <trkpt lat="48.82597" lon="-3.51523">
        <ele>18.39</ele>
        <time>2025-01-28T18:54:46.639Z</time>
      </trkpt>
      <trkpt lat="48.8262" lon="-3.51541">
        <ele>19.07</ele>
        <time>2025-01-28T18:54:52.763Z</time>
      </trkpt>
      <trkpt lat="48.82633" lon="-3.51543">
        <ele>19.44</ele>
        <time>2025-01-28T18:54:58.892Z</time>
      </trkpt>
      <trkpt lat="48.82636" lon="-3.51542">
        <ele>19.54</ele>
        <time>2025-01-28T18:55:05.022Z</time>
      </trkpt>
      <trkpt lat="48.8265" lon="-3.51537">
        <ele>19.79</ele>
        <time>2025-01-28T18:55:11.157Z</time>
      </trkpt>
      <trkpt lat="48.82663" lon="-3.51522">
        <ele>20.38</ele>
        <time>2025-01-28T18:55:17.297Z</time>
      </trkpt>
      <trkpt lat="48.82684" lon="-3.51555">
        <ele>20.62</ele>
        <time>2025-01-28T18:55:23.447Z</time>
      </trkpt>
      <trkpt lat="48.82704" lon="-3.51588">
        <ele>20.95</ele>
        <time>2025-01-28T18:55:29.607Z</time>
      </trkpt>
      <trkpt lat="48.82717" lon="-3.51597">
        <ele>21.21</ele>
        <time>2025-01-28T18:55:35.772Z</time>
      </trkpt>
      <trkpt lat="48.82736" lon="-3.51606">
        <ele>21.64</ele>
        <time>2025-01-28T18:55:41.944Z</time>
      </trkpt>
      <trkpt lat="48.82756" lon="-3.51615">
        <ele>22.07</ele>
        <time>2025-01-28T18:55:48.123Z</time>
      </trkpt>
      <trkpt lat="48.82762" lon="-3.51618">
        <ele>22.47</ele>
        <time>2025-01-28T18:55:54.304Z</time>
      </trkpt>
      <trkpt lat="48.82766" lon="-3.51614">
        <ele>22.34</ele>
        <time>2025-01-28T18:56:00.486Z</time>
      </trkpt>
      <trkpt lat="48.82773" lon="-3.51618">
        <ele>22.7</ele>
        <time>2025-01-28T18:56:06.671Z</time>
      </trkpt>
      <trkpt lat="48.82775" lon="-3.51623">
        <ele>23.56</ele>
        <time>2025-01-28T18:56:12.857Z</time>
      </trkpt>
      <trkpt lat="48.82794" lon="-3.51635">
        <ele>23.94</ele>
        <time>2025-01-28T18:56:19.050Z</time>
      </trkpt>
      <trkpt lat="48.8282" lon="-3.51659">
        <ele>24.23</ele>
        <time>2025-01-28T18:56:25.253Z</time>
      </trkpt>
      <trkpt lat="48.82833" lon="-3.51681">
        <ele>24.27</ele>
        <time>2025-01-28T18:56:31.462Z</time>
      </trkpt>
      <trkpt lat="48.82847" lon="-3.51712">
        <ele>24.14</ele>
        <time>2025-01-28T18:56:37.680Z</time>
      </trkpt>
      <trkpt lat="48.82861" lon="-3.51743">
        <ele>23.62</ele>
        <time>2025-01-28T18:56:43.906Z</time>
      </trkpt>
      <trkpt lat="48.82868" lon="-3.51781">
        <ele>22.93</ele>
        <time>2025-01-28T18:56:50.141Z</time>
      </trkpt>
      <trkpt lat="48.82875" lon="-3.51819">
        <ele>21.78</ele>
        <time>2025-01-28T18:56:56.384Z</time>
      </trkpt>
      <trkpt lat="48.82882" lon="-3.51856">
        <ele>20.59</ele>
        <time>2025-01-28T18:57:02.636Z</time>
      </trkpt>
      <trkpt lat="48.8289" lon="-3.51894">
        <ele>19.37</ele>
        <time>2025-01-28T18:57:08.897Z</time>
      </trkpt>
      <trkpt lat="48.82897" lon="-3.51932">
        <ele>18.19</ele>
        <time>2025-01-28T18:57:15.166Z</time>
      </trkpt>
      <trkpt lat="48.82897" lon="-3.51934">
        <ele>17.76</ele>
        <time>2025-01-28T18:57:21.436Z</time>
      </trkpt>
      <trkpt lat="48.82897" lon="-3.51944">
        <ele>16.68</ele>
        <time>2025-01-28T18:57:27.708Z</time>
      </trkpt>
      <trkpt lat="48.82901" lon="-3.51983">
        <ele>15.12</ele>
        <time>2025-01-28T18:57:33.989Z</time>
      </trkpt>
      <trkpt lat="48.82904" lon="-3.52022">
        <ele>14.12</ele>
        <time>2025-01-28T18:57:40.278Z</time>
      </trkpt>
      <trkpt lat="48.82908" lon="-3.5206">
        <ele>13.7</ele>
        <time>2025-01-28T18:57:46.576Z</time>
      </trkpt>
      <trkpt lat="48.8291" lon="-3.52095">
        <ele>12.46</ele>
        <time>2025-01-28T18:57:52.882Z</time>
      </trkpt>
      <trkpt lat="48.82912" lon="-3.52131">
        <ele>11.53</ele>
        <time>2025-01-28T18:57:59.195Z</time>
      </trkpt>
      <trkpt lat="48.82914" lon="-3.52165">
        <ele>11.06</ele>
        <time>2025-01-28T18:58:05.516Z</time>
      </trkpt>
      <trkpt lat="48.82894" lon="-3.52162">
        <ele>10.16</ele>
        <time>2025-01-28T18:58:11.844Z</time>
      </trkpt>
      <trkpt lat="48.82874" lon="-3.52158">
        <ele>9.56</ele>
        <time>2025-01-28T18:58:18.179Z</time>
      </trkpt>
    </trkseg>
  </trk>
</gpx>